<?xml version="1.0" encoding="UTF-8" standalone="no" ?>
<gpx xmlns="http://www.topografix.com/GPX/1/1" xmlns:xsi="http://www.w3.org/2001/XMLSchema-instance" xsi:schemaLocation="http://www.topografix.com/GPX/1/1 http://www.topografix.com/GPX/1/1/gpx.xsd" version="1.1" creator="VisuGPX - https://www.visugpx.com">
  <metadata>
    <name>Loue-Breme-45-900</name>
    <desc><![CDATA[Boucle au départ de Vuillafans - 45 km - D+ 900 m]]></desc>
  </metadata>
  <trk>
    <name><![CDATA[Loue-Breme-45-900]]></name>
    <trkseg>
      <trkpt lat="47.06859" lon="6.2049">
        <ele>347.96814</ele>
      </trkpt>
      <trkpt lat="47.0692" lon="6.20461">
        <ele>345.27005</ele>
      </trkpt>
      <trkpt lat="47.06966" lon="6.20438">
        <ele>346.332733</ele>
      </trkpt>
      <trkpt lat="47.07043" lon="6.20395">
        <ele>345.458405</ele>
      </trkpt>
      <trkpt lat="47.07115" lon="6.20336">
        <ele>347.094482</ele>
      </trkpt>
      <trkpt lat="47.07147" lon="6.20287">
        <ele>346.742126</ele>
      </trkpt>
      <trkpt lat="47.07174" lon="6.20232">
        <ele>345.036804</ele>
      </trkpt>
      <trkpt lat="47.07189" lon="6.20182">
        <ele>343.567139</ele>
      </trkpt>
      <trkpt lat="47.07192" lon="6.20172">
        <ele>343.105438</ele>
      </trkpt>
      <trkpt lat="47.07216" lon="6.2005">
        <ele>340.218597</ele>
      </trkpt>
      <trkpt lat="47.07228" lon="6.19948">
        <ele>342.189941</ele>
      </trkpt>
      <trkpt lat="47.07232" lon="6.19907">
        <ele>342.214996</ele>
      </trkpt>
      <trkpt lat="47.07257" lon="6.19733">
        <ele>341.163757</ele>
      </trkpt>
      <trkpt lat="47.07264" lon="6.19668">
        <ele>342.089844</ele>
      </trkpt>
      <trkpt lat="47.07262" lon="6.19634">
        <ele>343.228302</ele>
      </trkpt>
      <trkpt lat="47.07268" lon="6.19591">
        <ele>344.468048</ele>
      </trkpt>
      <trkpt lat="47.07285" lon="6.19478">
        <ele>346.361176</ele>
      </trkpt>
      <trkpt lat="47.07286" lon="6.19472">
        <ele>346.155975</ele>
      </trkpt>
      <trkpt lat="47.07297" lon="6.19387">
        <ele>344.126007</ele>
      </trkpt>
      <trkpt lat="47.07303" lon="6.19357">
        <ele>343.423553</ele>
      </trkpt>
      <trkpt lat="47.07304" lon="6.19342">
        <ele>343.311737</ele>
      </trkpt>
      <trkpt lat="47.073" lon="6.19332">
        <ele>343.846802</ele>
      </trkpt>
      <trkpt lat="47.07288" lon="6.19315">
        <ele>345.289673</ele>
      </trkpt>
      <trkpt lat="47.07277" lon="6.1929">
        <ele>346.385559</ele>
      </trkpt>
      <trkpt lat="47.07271" lon="6.19259">
        <ele>347.605865</ele>
      </trkpt>
      <trkpt lat="47.07271" lon="6.19243">
        <ele>347.998993</ele>
      </trkpt>
      <trkpt lat="47.07277" lon="6.19231">
        <ele>347.449249</ele>
      </trkpt>
      <trkpt lat="47.0729" lon="6.19216">
        <ele>346.735992</ele>
      </trkpt>
      <trkpt lat="47.07305" lon="6.19183">
        <ele>346.846924</ele>
      </trkpt>
      <trkpt lat="47.07352" lon="6.19082">
        <ele>346.290527</ele>
      </trkpt>
      <trkpt lat="47.0739" lon="6.19023">
        <ele>344.725311</ele>
      </trkpt>
      <trkpt lat="47.07437" lon="6.18971">
        <ele>346.951233</ele>
      </trkpt>
      <trkpt lat="47.07473" lon="6.18931">
        <ele>348.320831</ele>
      </trkpt>
      <trkpt lat="47.07534" lon="6.18836">
        <ele>346.91864</ele>
      </trkpt>
      <trkpt lat="47.0756" lon="6.18796">
        <ele>346.18512</ele>
      </trkpt>
      <trkpt lat="47.07593" lon="6.18769">
        <ele>346.377777</ele>
      </trkpt>
      <trkpt lat="47.07614" lon="6.18736">
        <ele>349.66748</ele>
      </trkpt>
      <trkpt lat="47.07628" lon="6.18723">
        <ele>350.151917</ele>
      </trkpt>
      <trkpt lat="47.07652" lon="6.1871">
        <ele>350.059998</ele>
      </trkpt>
      <trkpt lat="47.07673" lon="6.18702">
        <ele>350.540009</ele>
      </trkpt>
      <trkpt lat="47.07874" lon="6.18651">
        <ele>346.651154</ele>
      </trkpt>
      <trkpt lat="47.07938" lon="6.18634">
        <ele>347.628784</ele>
      </trkpt>
      <trkpt lat="47.07955" lon="6.1863">
        <ele>347.731995</ele>
      </trkpt>
      <trkpt lat="47.07964" lon="6.18636">
        <ele>346.559387</ele>
      </trkpt>
      <trkpt lat="47.07981" lon="6.18656">
        <ele>343.048645</ele>
      </trkpt>
      <trkpt lat="47.07993" lon="6.18659">
        <ele>342.083435</ele>
      </trkpt>
      <trkpt lat="47.08014" lon="6.18648">
        <ele>342.251617</ele>
      </trkpt>
      <trkpt lat="47.08036" lon="6.18639">
        <ele>341.82486</ele>
      </trkpt>
      <trkpt lat="47.08053" lon="6.1861">
        <ele>342.958191</ele>
      </trkpt>
      <trkpt lat="47.08077" lon="6.18574">
        <ele>346.222565</ele>
      </trkpt>
      <trkpt lat="47.08083" lon="6.18564">
        <ele>346.260193</ele>
      </trkpt>
      <trkpt lat="47.08099" lon="6.1852">
        <ele>350.250275</ele>
      </trkpt>
      <trkpt lat="47.08178" lon="6.18387">
        <ele>347.177338</ele>
      </trkpt>
      <trkpt lat="47.08185" lon="6.1836">
        <ele>347.987885</ele>
      </trkpt>
      <trkpt lat="47.08187" lon="6.18355">
        <ele>348.109314</ele>
      </trkpt>
      <trkpt lat="47.08203" lon="6.1833">
        <ele>346.262512</ele>
      </trkpt>
      <trkpt lat="47.08207" lon="6.1832">
        <ele>347.17453</ele>
        <time>2020-08-22T09:13:13Z</time>
      </trkpt>
      <trkpt lat="47.08234" lon="6.1829">
        <ele>348.073761</ele>
        <time>2020-08-22T09:13:21Z</time>
      </trkpt>
      <trkpt lat="47.08249" lon="6.18268">
        <ele>349.683746</ele>
        <time>2020-08-22T09:13:26Z</time>
      </trkpt>
      <trkpt lat="47.0826" lon="6.18228">
        <ele>354.642181</ele>
        <time>2020-08-22T09:13:33Z</time>
      </trkpt>
      <trkpt lat="47.08256" lon="6.182">
        <ele>357.466705</ele>
        <time>2020-08-22T09:13:38Z</time>
      </trkpt>
      <trkpt lat="47.08242" lon="6.18169">
        <ele>360.219299</ele>
        <time>2020-08-22T09:13:44Z</time>
      </trkpt>
      <trkpt lat="47.08209" lon="6.18122">
        <ele>365.222351</ele>
        <time>2020-08-22T09:13:54Z</time>
      </trkpt>
      <trkpt lat="47.08217" lon="6.181">
        <ele>367.54361</ele>
        <time>2020-08-22T09:13:58Z</time>
      </trkpt>
      <trkpt lat="47.08223" lon="6.18097">
        <ele>368.71048</ele>
        <time>2020-08-22T09:14:00Z</time>
      </trkpt>
      <trkpt lat="47.08303" lon="6.1811">
        <ele>375.177856</ele>
        <time>2020-08-22T09:14:19Z</time>
      </trkpt>
      <trkpt lat="47.08315" lon="6.1811">
        <ele>375.632416</ele>
        <time>2020-08-22T09:14:21Z</time>
      </trkpt>
      <trkpt lat="47.08331" lon="6.18106">
        <ele>377.434753</ele>
        <time>2020-08-22T09:14:25Z</time>
      </trkpt>
      <trkpt lat="47.08401" lon="6.18062">
        <ele>387.080414</ele>
        <time>2020-08-22T09:14:43Z</time>
      </trkpt>
      <trkpt lat="47.08432" lon="6.18039">
        <ele>391.274994</ele>
        <time>2020-08-22T09:14:51Z</time>
      </trkpt>
      <trkpt lat="47.08426" lon="6.18024">
        <ele>398.042511</ele>
        <time>2020-08-22T09:14:54Z</time>
      </trkpt>
      <trkpt lat="47.08401" lon="6.18028">
        <ele>399.617493</ele>
        <time>2020-08-22T09:15:00Z</time>
      </trkpt>
      <trkpt lat="47.08383" lon="6.18035">
        <ele>398.579193</ele>
        <time>2020-08-22T09:15:04Z</time>
      </trkpt>
      <trkpt lat="47.08366" lon="6.18038">
        <ele>398.772156</ele>
        <time>2020-08-22T09:15:08Z</time>
      </trkpt>
      <trkpt lat="47.08334" lon="6.18035">
        <ele>400.277496</ele>
        <time>2020-08-22T09:15:15Z</time>
      </trkpt>
      <trkpt lat="47.08311" lon="6.18019">
        <ele>404.674988</ele>
        <time>2020-08-22T09:15:21Z</time>
      </trkpt>
      <trkpt lat="47.08277" lon="6.17983">
        <ele>409.829071</ele>
        <time>2020-08-22T09:15:31Z</time>
      </trkpt>
      <trkpt lat="47.08263" lon="6.17967">
        <ele>411.27243</ele>
        <time>2020-08-22T09:15:35Z</time>
      </trkpt>
      <trkpt lat="47.08239" lon="6.17931">
        <ele>416.307037</ele>
        <time>2020-08-22T09:15:43Z</time>
      </trkpt>
      <trkpt lat="47.08224" lon="6.17914">
        <ele>416.656189</ele>
        <time>2020-08-22T09:15:48Z</time>
      </trkpt>
      <trkpt lat="47.08209" lon="6.1791">
        <ele>414.455566</ele>
        <time>2020-08-22T09:15:51Z</time>
      </trkpt>
      <trkpt lat="47.08195" lon="6.1791">
        <ele>412.377808</ele>
        <time>2020-08-22T09:15:55Z</time>
      </trkpt>
      <trkpt lat="47.08168" lon="6.17892">
        <ele>414.695496</ele>
        <time>2020-08-22T09:16:02Z</time>
      </trkpt>
      <trkpt lat="47.0814" lon="6.17854">
        <ele>421.710236</ele>
        <time>2020-08-22T09:16:10Z</time>
      </trkpt>
      <trkpt lat="47.08091" lon="6.17778">
        <ele>430.962616</ele>
        <time>2020-08-22T09:16:27Z</time>
      </trkpt>
      <trkpt lat="47.08046" lon="6.17699">
        <ele>441.807953</ele>
        <time>2020-08-22T09:16:43Z</time>
      </trkpt>
      <trkpt lat="47.07991" lon="6.17629">
        <ele>450.447479</ele>
        <time>2020-08-22T09:17:00Z</time>
      </trkpt>
      <trkpt lat="47.07931" lon="6.17573">
        <ele>460.440002</ele>
        <time>2020-08-22T09:17:17Z</time>
      </trkpt>
      <trkpt lat="47.07917" lon="6.17563">
        <ele>461.891693</ele>
        <time>2020-08-22T09:17:21Z</time>
      </trkpt>
      <trkpt lat="47.07896" lon="6.17555">
        <ele>463.644714</ele>
        <time>2020-08-22T09:17:26Z</time>
      </trkpt>
      <trkpt lat="47.07882" lon="6.17556">
        <ele>463.212189</ele>
        <time>2020-08-22T09:17:29Z</time>
      </trkpt>
      <trkpt lat="47.07875" lon="6.17553">
        <ele>463.264801</ele>
        <time>2020-08-22T09:17:31Z</time>
      </trkpt>
      <trkpt lat="47.07874" lon="6.17541">
        <ele>466.597473</ele>
        <time>2020-08-22T09:17:33Z</time>
      </trkpt>
      <trkpt lat="47.07877" lon="6.17532">
        <ele>470.949829</ele>
        <time>2020-08-22T09:17:34Z</time>
      </trkpt>
      <trkpt lat="47.07881" lon="6.17529">
        <ele>472.64801</ele>
        <time>2020-08-22T09:17:35Z</time>
      </trkpt>
      <trkpt lat="47.07888" lon="6.17528">
        <ele>473.769623</ele>
        <time>2020-08-22T09:17:37Z</time>
      </trkpt>
      <trkpt lat="47.07908" lon="6.17531">
        <ele>474.268005</ele>
        <time>2020-08-22T09:17:42Z</time>
      </trkpt>
      <trkpt lat="47.07934" lon="6.17538">
        <ele>475.776245</ele>
        <time>2020-08-22T09:17:48Z</time>
      </trkpt>
      <trkpt lat="47.07953" lon="6.17548">
        <ele>475.410004</ele>
        <time>2020-08-22T09:17:53Z</time>
      </trkpt>
      <trkpt lat="47.08054" lon="6.17581">
        <ele>491.256012</ele>
        <time>2020-08-22T09:18:17Z</time>
      </trkpt>
      <trkpt lat="47.08069" lon="6.17592">
        <ele>492.130432</ele>
        <time>2020-08-22T09:18:21Z</time>
      </trkpt>
      <trkpt lat="47.08082" lon="6.17597">
        <ele>494.956238</ele>
        <time>2020-08-22T09:18:24Z</time>
      </trkpt>
      <trkpt lat="47.08131" lon="6.17635">
        <ele>499.431427</ele>
        <time>2020-08-22T09:18:37Z</time>
      </trkpt>
      <trkpt lat="47.0814" lon="6.1764">
        <ele>500.608704</ele>
        <time>2020-08-22T09:18:39Z</time>
      </trkpt>
      <trkpt lat="47.08164" lon="6.17647">
        <ele>504.285309</ele>
        <time>2020-08-22T09:18:45Z</time>
      </trkpt>
      <trkpt lat="47.08222" lon="6.17634">
        <ele>515.438049</ele>
        <time>2020-08-22T09:18:58Z</time>
      </trkpt>
      <trkpt lat="47.08249" lon="6.17631">
        <ele>517.647522</ele>
        <time>2020-08-22T09:19:05Z</time>
      </trkpt>
      <trkpt lat="47.08287" lon="6.17617">
        <ele>521.848755</ele>
        <time>2020-08-22T09:19:14Z</time>
      </trkpt>
      <trkpt lat="47.083" lon="6.17589">
        <ele>526.476318</ele>
        <time>2020-08-22T09:19:19Z</time>
      </trkpt>
      <trkpt lat="47.08304" lon="6.17533">
        <ele>530.096252</ele>
        <time>2020-08-22T09:19:28Z</time>
      </trkpt>
      <trkpt lat="47.08299" lon="6.17521">
        <ele>530.625</ele>
        <time>2020-08-22T09:19:30Z</time>
      </trkpt>
      <trkpt lat="47.0829" lon="6.17533">
        <ele>530.05127</ele>
        <time>2020-08-22T09:19:33Z</time>
      </trkpt>
      <trkpt lat="47.08297" lon="6.17539">
        <ele>529.799988</ele>
        <time>2020-08-22T09:19:35Z</time>
      </trkpt>
      <trkpt lat="47.08289" lon="6.17554">
        <ele>529.091248</ele>
        <time>2020-08-22T09:19:38Z</time>
      </trkpt>
      <trkpt lat="47.08285" lon="6.17554">
        <ele>529.080017</ele>
        <time>2020-08-22T09:19:39Z</time>
      </trkpt>
      <trkpt lat="47.08179" lon="6.17496">
        <ele>529.931274</ele>
        <time>2020-08-22T09:20:06Z</time>
      </trkpt>
      <trkpt lat="47.08084" lon="6.17429">
        <ele>529.794861</ele>
        <time>2020-08-22T09:20:30Z</time>
      </trkpt>
      <trkpt lat="47.08032" lon="6.17402">
        <ele>529.445129</ele>
        <time>2020-08-22T09:20:43Z</time>
      </trkpt>
      <trkpt lat="47.07979" lon="6.17382">
        <ele>528.86969</ele>
        <time>2020-08-22T09:20:56Z</time>
      </trkpt>
      <trkpt lat="47.07856" lon="6.17346">
        <ele>527.117249</ele>
        <time>2020-08-22T09:21:25Z</time>
      </trkpt>
      <trkpt lat="47.07812" lon="6.17347">
        <ele>525.477722</ele>
        <time>2020-08-22T09:21:35Z</time>
      </trkpt>
      <trkpt lat="47.07775" lon="6.17357">
        <ele>524.47113</ele>
        <time>2020-08-22T09:21:44Z</time>
      </trkpt>
      <trkpt lat="47.07755" lon="6.17355">
        <ele>525.385803</ele>
        <time>2020-08-22T09:21:49Z</time>
      </trkpt>
      <trkpt lat="47.07739" lon="6.1735">
        <ele>526.270813</ele>
        <time>2020-08-22T09:21:53Z</time>
      </trkpt>
      <trkpt lat="47.07727" lon="6.17339">
        <ele>527.500305</ele>
        <time>2020-08-22T09:21:56Z</time>
      </trkpt>
      <trkpt lat="47.07724" lon="6.17322">
        <ele>525.947998</ele>
        <time>2020-08-22T09:21:59Z</time>
      </trkpt>
      <trkpt lat="47.07745" lon="6.17256">
        <ele>513.097107</ele>
        <time>2020-08-22T09:22:10Z</time>
      </trkpt>
      <trkpt lat="47.07756" lon="6.172">
        <ele>501.213745</ele>
        <time>2020-08-22T09:22:20Z</time>
      </trkpt>
      <trkpt lat="47.07772" lon="6.17086">
        <ele>482.041687</ele>
        <time>2020-08-22T09:22:38Z</time>
      </trkpt>
      <trkpt lat="47.07771" lon="6.17097">
        <ele>483.882385</ele>
        <time>2020-08-22T09:22:40Z</time>
      </trkpt>
      <trkpt lat="47.07761" lon="6.17131">
        <ele>487.469299</ele>
        <time>2020-08-22T09:22:46Z</time>
      </trkpt>
      <trkpt lat="47.07748" lon="6.17161">
        <ele>490.058319</ele>
        <time>2020-08-22T09:22:51Z</time>
      </trkpt>
      <trkpt lat="47.07743" lon="6.17181">
        <ele>494.780365</ele>
        <time>2020-08-22T09:22:55Z</time>
      </trkpt>
      <trkpt lat="47.07735" lon="6.17192">
        <ele>498.019623</ele>
        <time>2020-08-22T09:22:57Z</time>
      </trkpt>
      <trkpt lat="47.07732" lon="6.17201">
        <ele>500.426331</ele>
        <time>2020-08-22T09:22:59Z</time>
      </trkpt>
      <trkpt lat="47.07735" lon="6.17202">
        <ele>500.367157</ele>
        <time>2020-08-22T09:23:00Z</time>
      </trkpt>
      <trkpt lat="47.07712" lon="6.17188">
        <ele>499.060089</ele>
        <time>2020-08-22T09:23:05Z</time>
      </trkpt>
      <trkpt lat="47.07671" lon="6.17152">
        <ele>504.415985</ele>
        <time>2020-08-22T09:23:17Z</time>
      </trkpt>
      <trkpt lat="47.07649" lon="6.17092">
        <ele>500.19751</ele>
        <time>2020-08-22T09:23:27Z</time>
      </trkpt>
      <trkpt lat="47.07637" lon="6.1708">
        <ele>501.497498</ele>
        <time>2020-08-22T09:23:31Z</time>
      </trkpt>
      <trkpt lat="47.07621" lon="6.17072">
        <ele>504.981262</ele>
        <time>2020-08-22T09:23:35Z</time>
      </trkpt>
      <trkpt lat="47.07595" lon="6.17067">
        <ele>506.929871</ele>
        <time>2020-08-22T09:23:41Z</time>
      </trkpt>
      <trkpt lat="47.07582" lon="6.17067">
        <ele>507.737366</ele>
        <time>2020-08-22T09:23:44Z</time>
      </trkpt>
      <trkpt lat="47.07551" lon="6.17074">
        <ele>510.766754</ele>
        <time>2020-08-22T09:23:51Z</time>
      </trkpt>
      <trkpt lat="47.07514" lon="6.17079">
        <ele>512.730225</ele>
        <time>2020-08-22T09:24:00Z</time>
      </trkpt>
      <trkpt lat="47.0749" lon="6.17086">
        <ele>514.434143</ele>
        <time>2020-08-22T09:24:06Z</time>
      </trkpt>
      <trkpt lat="47.07395" lon="6.17096">
        <ele>515.757813</ele>
        <time>2020-08-22T09:24:28Z</time>
      </trkpt>
      <trkpt lat="47.07383" lon="6.17102">
        <ele>517.337952</ele>
        <time>2020-08-22T09:24:31Z</time>
      </trkpt>
      <trkpt lat="47.07353" lon="6.17111">
        <ele>519.047852</ele>
        <time>2020-08-22T09:24:38Z</time>
      </trkpt>
      <trkpt lat="47.07326" lon="6.17126">
        <ele>521.532166</ele>
        <time>2020-08-22T09:24:45Z</time>
      </trkpt>
      <trkpt lat="47.07309" lon="6.17129">
        <ele>521.170959</ele>
        <time>2020-08-22T09:24:49Z</time>
      </trkpt>
      <trkpt lat="47.07284" lon="6.17148">
        <ele>524.617737</ele>
        <time>2020-08-22T09:24:55Z</time>
      </trkpt>
      <trkpt lat="47.07214" lon="6.17186">
        <ele>527.007996</ele>
        <time>2020-08-22T09:25:13Z</time>
      </trkpt>
      <trkpt lat="47.07201" lon="6.17201">
        <ele>528.091553</ele>
        <time>2020-08-22T09:25:17Z</time>
      </trkpt>
      <trkpt lat="47.07183" lon="6.17212">
        <ele>527.429016</ele>
        <time>2020-08-22T09:25:21Z</time>
      </trkpt>
      <trkpt lat="47.07167" lon="6.17229">
        <ele>528.917175</ele>
        <time>2020-08-22T09:25:26Z</time>
      </trkpt>
      <trkpt lat="47.07158" lon="6.17244">
        <ele>530.134399</ele>
        <time>2020-08-22T09:25:29Z</time>
      </trkpt>
      <trkpt lat="47.07132" lon="6.17267">
        <ele>525.886353</ele>
        <time>2020-08-22T09:25:36Z</time>
      </trkpt>
      <trkpt lat="47.0712" lon="6.17282">
        <ele>525.225952</ele>
        <time>2020-08-22T09:25:40Z</time>
      </trkpt>
      <trkpt lat="47.07104" lon="6.17309">
        <ele>524.703796</ele>
        <time>2020-08-22T09:25:45Z</time>
      </trkpt>
      <trkpt lat="47.07104" lon="6.17325">
        <ele>527.487671</ele>
        <time>2020-08-22T09:25:48Z</time>
      </trkpt>
      <trkpt lat="47.071" lon="6.17333">
        <ele>527.274353</ele>
        <time>2020-08-22T09:25:50Z</time>
      </trkpt>
      <trkpt lat="47.07098" lon="6.17348">
        <ele>529.067444</ele>
        <time>2020-08-22T09:25:52Z</time>
      </trkpt>
      <trkpt lat="47.07079" lon="6.17365">
        <ele>525.198608</ele>
        <time>2020-08-22T09:25:57Z</time>
      </trkpt>
      <trkpt lat="47.07059" lon="6.17388">
        <ele>525.160706</ele>
        <time>2020-08-22T09:26:03Z</time>
      </trkpt>
      <trkpt lat="47.0705" lon="6.17402">
        <ele>527.930725</ele>
        <time>2020-08-22T09:26:06Z</time>
      </trkpt>
      <trkpt lat="47.07041" lon="6.17431">
        <ele>534.006287</ele>
        <time>2020-08-22T09:26:11Z</time>
      </trkpt>
      <trkpt lat="47.07031" lon="6.17452">
        <ele>539.046936</ele>
        <time>2020-08-22T09:26:15Z</time>
      </trkpt>
      <trkpt lat="47.07024" lon="6.17459">
        <ele>540.781555</ele>
        <time>2020-08-22T09:26:17Z</time>
      </trkpt>
      <trkpt lat="47.07012" lon="6.17464">
        <ele>543.383423</ele>
        <time>2020-08-22T09:26:20Z</time>
      </trkpt>
      <trkpt lat="47.07004" lon="6.17458">
        <ele>544.190979</ele>
        <time>2020-08-22T09:26:22Z</time>
      </trkpt>
      <trkpt lat="47.06971" lon="6.1742">
        <ele>544.959595</ele>
        <time>2020-08-22T09:26:32Z</time>
      </trkpt>
      <trkpt lat="47.06956" lon="6.17388">
        <ele>541.879944</ele>
        <time>2020-08-22T09:26:38Z</time>
      </trkpt>
      <trkpt lat="47.06921" lon="6.17353">
        <ele>539.503723</ele>
        <time>2020-08-22T09:26:48Z</time>
      </trkpt>
      <trkpt lat="47.06888" lon="6.1734">
        <ele>538.460022</ele>
        <time>2020-08-22T09:26:56Z</time>
      </trkpt>
      <trkpt lat="47.06833" lon="6.17328">
        <ele>536.8125</ele>
        <time>2020-08-22T09:27:09Z</time>
      </trkpt>
      <trkpt lat="47.06809" lon="6.17326">
        <ele>536.737488</ele>
        <time>2020-08-22T09:27:15Z</time>
      </trkpt>
      <trkpt lat="47.06762" lon="6.1733">
        <ele>536.984802</ele>
        <time>2020-08-22T09:27:26Z</time>
      </trkpt>
      <trkpt lat="47.06712" lon="6.1733">
        <ele>537.193298</ele>
        <time>2020-08-22T09:27:37Z</time>
      </trkpt>
      <trkpt lat="47.06697" lon="6.17327">
        <ele>536.309998</ele>
        <time>2020-08-22T09:27:41Z</time>
      </trkpt>
      <trkpt lat="47.06683" lon="6.17313">
        <ele>532.51001</ele>
        <time>2020-08-22T09:27:45Z</time>
      </trkpt>
      <trkpt lat="47.06667" lon="6.1729">
        <ele>526.450012</ele>
        <time>2020-08-22T09:27:50Z</time>
      </trkpt>
      <trkpt lat="47.06634" lon="6.17267">
        <ele>517.519958</ele>
        <time>2020-08-22T09:27:59Z</time>
      </trkpt>
      <trkpt lat="47.06581" lon="6.17246">
        <ele>503.930481</ele>
        <time>2020-08-22T09:28:12Z</time>
      </trkpt>
      <trkpt lat="47.06557" lon="6.17241">
        <ele>500.547333</ele>
        <time>2020-08-22T09:28:17Z</time>
      </trkpt>
      <trkpt lat="47.06545" lon="6.17236">
        <ele>498.83371</ele>
        <time>2020-08-22T09:28:20Z</time>
      </trkpt>
      <trkpt lat="47.06534" lon="6.17209">
        <ele>494.837189</ele>
        <time>2020-08-22T09:28:25Z</time>
      </trkpt>
      <trkpt lat="47.06548" lon="6.17202">
        <ele>492.23114</ele>
        <time>2020-08-22T09:28:29Z</time>
      </trkpt>
      <trkpt lat="47.06568" lon="6.17198">
        <ele>488.32132</ele>
        <time>2020-08-22T09:28:33Z</time>
      </trkpt>
      <trkpt lat="47.06586" lon="6.17198">
        <ele>487.381927</ele>
        <time>2020-08-22T09:28:37Z</time>
      </trkpt>
      <trkpt lat="47.06604" lon="6.17192">
        <ele>486.11618</ele>
        <time>2020-08-22T09:28:42Z</time>
      </trkpt>
      <trkpt lat="47.06656" lon="6.17158">
        <ele>479.048004</ele>
        <time>2020-08-22T09:28:55Z</time>
      </trkpt>
      <trkpt lat="47.06707" lon="6.17132">
        <ele>471.587494</ele>
        <time>2020-08-22T09:29:08Z</time>
      </trkpt>
      <trkpt lat="47.06749" lon="6.17121">
        <ele>472.902496</ele>
        <time>2020-08-22T09:29:18Z</time>
      </trkpt>
      <trkpt lat="47.06787" lon="6.17108">
        <ele>468.706146</ele>
        <time>2020-08-22T09:29:27Z</time>
      </trkpt>
      <trkpt lat="47.06809" lon="6.17097">
        <ele>463.899017</ele>
        <time>2020-08-22T09:29:32Z</time>
      </trkpt>
      <trkpt lat="47.06819" lon="6.17089">
        <ele>461.052002</ele>
        <time>2020-08-22T09:29:35Z</time>
      </trkpt>
      <trkpt lat="47.06816" lon="6.17084">
        <ele>459.363434</ele>
        <time>2020-08-22T09:29:36Z</time>
      </trkpt>
      <trkpt lat="47.06848" lon="6.17082">
        <ele>457.965271</ele>
        <time>2020-08-22T09:29:43Z</time>
      </trkpt>
      <trkpt lat="47.06875" lon="6.1709">
        <ele>456.098511</ele>
        <time>2020-08-22T09:29:50Z</time>
      </trkpt>
      <trkpt lat="47.0691" lon="6.17087">
        <ele>451.155884</ele>
        <time>2020-08-22T09:29:58Z</time>
      </trkpt>
      <trkpt lat="47.06919" lon="6.17079">
        <ele>449.314056</ele>
        <time>2020-08-22T09:30:00Z</time>
      </trkpt>
      <trkpt lat="47.0691" lon="6.17076">
        <ele>448.986389</ele>
        <time>2020-08-22T09:30:03Z</time>
      </trkpt>
      <trkpt lat="47.06934" lon="6.17071">
        <ele>447.467712</ele>
        <time>2020-08-22T09:30:08Z</time>
      </trkpt>
      <trkpt lat="47.06932" lon="6.1707">
        <ele>447.354126</ele>
        <time>2020-08-22T09:30:09Z</time>
      </trkpt>
      <trkpt lat="47.06932" lon="6.17065">
        <ele>446.318604</ele>
        <time>2020-08-22T09:30:10Z</time>
      </trkpt>
      <trkpt lat="47.06966" lon="6.17048">
        <ele>439.794037</ele>
        <time>2020-08-22T09:30:18Z</time>
      </trkpt>
      <trkpt lat="47.07011" lon="6.17045">
        <ele>434.492004</ele>
        <time>2020-08-22T09:30:28Z</time>
      </trkpt>
      <trkpt lat="47.07048" lon="6.17006">
        <ele>429.956268</ele>
        <time>2020-08-22T09:30:39Z</time>
      </trkpt>
      <trkpt lat="47.07066" lon="6.16983">
        <ele>427.456512</ele>
        <time>2020-08-22T09:30:45Z</time>
      </trkpt>
      <trkpt lat="47.07069" lon="6.16978">
        <ele>426.501007</ele>
        <time>2020-08-22T09:30:46Z</time>
      </trkpt>
      <trkpt lat="47.07068" lon="6.16972">
        <ele>425.693817</ele>
        <time>2020-08-22T09:30:47Z</time>
      </trkpt>
      <trkpt lat="47.07073" lon="6.16962">
        <ele>423.956726</ele>
        <time>2020-08-22T09:30:49Z</time>
      </trkpt>
      <trkpt lat="47.07105" lon="6.16925">
        <ele>424.517395</ele>
        <time>2020-08-22T09:30:58Z</time>
      </trkpt>
      <trkpt lat="47.07137" lon="6.16878">
        <ele>422.309906</ele>
        <time>2020-08-22T09:31:09Z</time>
      </trkpt>
      <trkpt lat="47.07158" lon="6.16852">
        <ele>420.635986</ele>
        <time>2020-08-22T09:31:15Z</time>
      </trkpt>
      <trkpt lat="47.07195" lon="6.16819">
        <ele>418.21759</ele>
        <time>2020-08-22T09:31:25Z</time>
      </trkpt>
      <trkpt lat="47.07224" lon="6.16804">
        <ele>415.167328</ele>
        <time>2020-08-22T09:31:32Z</time>
      </trkpt>
      <trkpt lat="47.07279" lon="6.16785">
        <ele>412.802399</ele>
        <time>2020-08-22T09:31:46Z</time>
      </trkpt>
      <trkpt lat="47.07393" lon="6.16773">
        <ele>413.348785</ele>
        <time>2020-08-22T09:32:12Z</time>
      </trkpt>
      <trkpt lat="47.07413" lon="6.16769">
        <ele>412.732513</ele>
        <time>2020-08-22T09:32:17Z</time>
      </trkpt>
      <trkpt lat="47.07461" lon="6.1675">
        <ele>409.397491</ele>
        <time>2020-08-22T09:32:29Z</time>
      </trkpt>
      <trkpt lat="47.07502" lon="6.16739">
        <ele>406.893738</ele>
        <time>2020-08-22T09:32:38Z</time>
      </trkpt>
      <trkpt lat="47.07565" lon="6.16728">
        <ele>404.290955</ele>
        <time>2020-08-22T09:32:53Z</time>
      </trkpt>
      <trkpt lat="47.07594" lon="6.16727">
        <ele>403.280762</ele>
        <time>2020-08-22T09:33:00Z</time>
      </trkpt>
      <trkpt lat="47.07623" lon="6.16718">
        <ele>400.026947</ele>
        <time>2020-08-22T09:33:07Z</time>
      </trkpt>
      <trkpt lat="47.07693" lon="6.1672">
        <ele>395.470886</ele>
        <time>2020-08-22T09:33:23Z</time>
      </trkpt>
      <trkpt lat="47.0774" lon="6.16734">
        <ele>394.536285</ele>
        <time>2020-08-22T09:33:35Z</time>
      </trkpt>
      <trkpt lat="47.07767" lon="6.16725">
        <ele>393.302094</ele>
        <time>2020-08-22T09:33:41Z</time>
      </trkpt>
      <trkpt lat="47.07793" lon="6.16709">
        <ele>391.361572</ele>
        <time>2020-08-22T09:33:48Z</time>
      </trkpt>
      <trkpt lat="47.0786" lon="6.16677">
        <ele>388.226654</ele>
        <time>2020-08-22T09:34:04Z</time>
      </trkpt>
      <trkpt lat="47.07931" lon="6.1666">
        <ele>386.704041</ele>
        <time>2020-08-22T09:34:21Z</time>
      </trkpt>
      <trkpt lat="47.07972" lon="6.16654">
        <ele>385.511841</ele>
        <time>2020-08-22T09:34:30Z</time>
      </trkpt>
      <trkpt lat="47.08014" lon="6.16638">
        <ele>382.352386</ele>
        <time>2020-08-22T09:34:41Z</time>
      </trkpt>
      <trkpt lat="47.08056" lon="6.16612">
        <ele>381.48999</ele>
        <time>2020-08-22T09:34:51Z</time>
      </trkpt>
      <trkpt lat="47.08085" lon="6.16584">
        <ele>377.61142</ele>
        <time>2020-08-22T09:34:59Z</time>
      </trkpt>
      <trkpt lat="47.08115" lon="6.16567">
        <ele>375.221954</ele>
        <time>2020-08-22T09:35:07Z</time>
      </trkpt>
      <trkpt lat="47.08153" lon="6.16552">
        <ele>373.189362</ele>
        <time>2020-08-22T09:35:16Z</time>
      </trkpt>
      <trkpt lat="47.08197" lon="6.16547">
        <ele>371.621246</ele>
        <time>2020-08-22T09:35:26Z</time>
      </trkpt>
      <trkpt lat="47.08236" lon="6.16532">
        <ele>367.877625</ele>
        <time>2020-08-22T09:35:36Z</time>
      </trkpt>
      <trkpt lat="47.08275" lon="6.16527">
        <ele>365.626129</ele>
        <time>2020-08-22T09:35:45Z</time>
      </trkpt>
      <trkpt lat="47.08301" lon="6.16512">
        <ele>364.339355</ele>
        <time>2020-08-22T09:35:51Z</time>
      </trkpt>
      <trkpt lat="47.08358" lon="6.16473">
        <ele>361.99826</ele>
        <time>2020-08-22T09:36:06Z</time>
      </trkpt>
      <trkpt lat="47.08373" lon="6.16467">
        <ele>361.366577</ele>
        <time>2020-08-22T09:36:10Z</time>
      </trkpt>
      <trkpt lat="47.08372" lon="6.16464">
        <ele>361.079437</ele>
        <time>2020-08-22T09:36:10Z</time>
      </trkpt>
      <trkpt lat="47.08381" lon="6.16459">
        <ele>360.742615</ele>
        <time>2020-08-22T09:36:12Z</time>
      </trkpt>
      <trkpt lat="47.0837" lon="6.16458">
        <ele>360.747986</ele>
        <time>2020-08-22T09:36:15Z</time>
      </trkpt>
      <trkpt lat="47.08365" lon="6.16441">
        <ele>359.95459</ele>
        <time>2020-08-22T09:36:18Z</time>
      </trkpt>
      <trkpt lat="47.08368" lon="6.16386">
        <ele>357.628754</ele>
        <time>2020-08-22T09:36:27Z</time>
      </trkpt>
      <trkpt lat="47.08381" lon="6.1637">
        <ele>357.092499</ele>
        <time>2020-08-22T09:36:31Z</time>
      </trkpt>
      <trkpt lat="47.08432" lon="6.16365">
        <ele>355.498474</ele>
        <time>2020-08-22T09:36:43Z</time>
      </trkpt>
      <trkpt lat="47.08492" lon="6.16364">
        <ele>353.441406</ele>
        <time>2020-08-22T09:36:57Z</time>
      </trkpt>
      <trkpt lat="47.08513" lon="6.16356">
        <ele>353.132385</ele>
        <time>2020-08-22T09:37:02Z</time>
      </trkpt>
      <trkpt lat="47.08529" lon="6.16346">
        <ele>353.013428</ele>
        <time>2020-08-22T09:37:06Z</time>
      </trkpt>
      <trkpt lat="47.08548" lon="6.16317">
        <ele>355.35614</ele>
        <time>2020-08-22T09:37:12Z</time>
      </trkpt>
      <trkpt lat="47.08565" lon="6.16307">
        <ele>356.2453</ele>
        <time>2020-08-22T09:37:16Z</time>
      </trkpt>
      <trkpt lat="47.08583" lon="6.1631">
        <ele>355.892395</ele>
        <time>2020-08-22T09:37:21Z</time>
      </trkpt>
      <trkpt lat="47.08665" lon="6.16348">
        <ele>352.333099</ele>
        <time>2020-08-22T09:37:41Z</time>
      </trkpt>
      <trkpt lat="47.08699" lon="6.16351">
        <ele>352.304138</ele>
        <time>2020-08-22T09:37:49Z</time>
      </trkpt>
      <trkpt lat="47.08756" lon="6.16337">
        <ele>353.445557</ele>
        <time>2020-08-22T09:38:02Z</time>
      </trkpt>
      <trkpt lat="47.08839" lon="6.16342">
        <ele>352.860016</ele>
        <time>2020-08-22T09:38:22Z</time>
      </trkpt>
      <trkpt lat="47.09011" lon="6.1637">
        <ele>349.879272</ele>
        <time>2020-08-22T09:39:02Z</time>
      </trkpt>
      <trkpt lat="47.09077" lon="6.16398">
        <ele>350.417358</ele>
        <time>2020-08-22T09:39:18Z</time>
      </trkpt>
      <trkpt lat="47.0912" lon="6.16403">
        <ele>350.987457</ele>
        <time>2020-08-22T09:39:28Z</time>
      </trkpt>
      <trkpt lat="47.09166" lon="6.16398">
        <ele>350.997498</ele>
        <time>2020-08-22T09:39:39Z</time>
      </trkpt>
      <trkpt lat="47.09229" lon="6.16375">
        <ele>352.850006</ele>
        <time>2020-08-22T09:39:54Z</time>
      </trkpt>
      <trkpt lat="47.09285" lon="6.16374">
        <ele>352.508789</ele>
        <time>2020-08-22T09:40:07Z</time>
      </trkpt>
      <trkpt lat="47.09322" lon="6.16383">
        <ele>351.108429</ele>
        <time>2020-08-22T09:40:16Z</time>
      </trkpt>
      <trkpt lat="47.09341" lon="6.16385">
        <ele>350.967072</ele>
        <time>2020-08-22T09:40:20Z</time>
      </trkpt>
      <trkpt lat="47.0937" lon="6.16369">
        <ele>350.688324</ele>
        <time>2020-08-22T09:40:28Z</time>
      </trkpt>
      <trkpt lat="47.09416" lon="6.16321">
        <ele>349.4599</ele>
        <time>2020-08-22T09:40:41Z</time>
      </trkpt>
      <trkpt lat="47.09458" lon="6.1629">
        <ele>347.51889</ele>
        <time>2020-08-22T09:40:52Z</time>
      </trkpt>
      <trkpt lat="47.09572" lon="6.16241">
        <ele>345.832489</ele>
        <time>2020-08-22T09:41:20Z</time>
      </trkpt>
      <trkpt lat="47.09636" lon="6.16219">
        <ele>344.830017</ele>
        <time>2020-08-22T09:41:35Z</time>
      </trkpt>
      <trkpt lat="47.09683" lon="6.16211">
        <ele>344.030396</ele>
        <time>2020-08-22T09:41:46Z</time>
      </trkpt>
      <trkpt lat="47.09713" lon="6.16194">
        <ele>344.097717</ele>
        <time>2020-08-22T09:41:53Z</time>
      </trkpt>
      <trkpt lat="47.09806" lon="6.16065">
        <ele>343.377502</ele>
        <time>2020-08-22T09:42:23Z</time>
      </trkpt>
      <trkpt lat="47.09832" lon="6.16021">
        <ele>343.553192</ele>
        <time>2020-08-22T09:42:33Z</time>
      </trkpt>
      <trkpt lat="47.09915" lon="6.15832">
        <ele>345.533997</ele>
        <time>2020-08-22T09:43:08Z</time>
      </trkpt>
      <trkpt lat="47.09969" lon="6.15739">
        <ele>346.230286</ele>
        <time>2020-08-22T09:43:28Z</time>
      </trkpt>
      <trkpt lat="47.10001" lon="6.15693">
        <ele>345.570953</ele>
        <time>2020-08-22T09:43:38Z</time>
      </trkpt>
      <trkpt lat="47.10043" lon="6.15641">
        <ele>344.932495</ele>
        <time>2020-08-22T09:43:51Z</time>
      </trkpt>
      <trkpt lat="47.10101" lon="6.1558">
        <ele>342.617706</ele>
        <time>2020-08-22T09:44:08Z</time>
      </trkpt>
      <trkpt lat="47.10129" lon="6.15541">
        <ele>337.957642</ele>
        <time>2020-08-22T09:44:17Z</time>
      </trkpt>
      <trkpt lat="47.10162" lon="6.15494">
        <ele>334.634949</ele>
        <time>2020-08-22T09:44:27Z</time>
      </trkpt>
      <trkpt lat="47.10172" lon="6.15455">
        <ele>333.951935</ele>
        <time>2020-08-22T09:44:34Z</time>
      </trkpt>
      <trkpt lat="47.1018" lon="6.15441">
        <ele>332.376038</ele>
        <time>2020-08-22T09:44:37Z</time>
      </trkpt>
      <trkpt lat="47.10247" lon="6.1545">
        <ele>331.088745</ele>
        <time>2020-08-22T09:44:53Z</time>
      </trkpt>
      <trkpt lat="47.1025" lon="6.15448">
        <ele>331.184998</ele>
        <time>2020-08-22T09:44:53Z</time>
      </trkpt>
      <trkpt lat="47.10254" lon="6.1544">
        <ele>331.230011</ele>
        <time>2020-08-22T09:44:55Z</time>
      </trkpt>
      <trkpt lat="47.10251" lon="6.1544">
        <ele>331.092499</ele>
        <time>2020-08-22T09:44:56Z</time>
      </trkpt>
      <trkpt lat="47.10255" lon="6.1542">
        <ele>330.934998</ele>
        <time>2020-08-22T09:44:59Z</time>
      </trkpt>
      <trkpt lat="47.10264" lon="6.15399">
        <ele>330.900848</ele>
        <time>2020-08-22T09:45:03Z</time>
      </trkpt>
      <trkpt lat="47.10271" lon="6.15391">
        <ele>331.064728</ele>
        <time>2020-08-22T09:45:05Z</time>
      </trkpt>
      <trkpt lat="47.10311" lon="6.15292">
        <ele>330.76709</ele>
        <time>2020-08-22T09:45:23Z</time>
      </trkpt>
      <trkpt lat="47.10321" lon="6.15295">
        <ele>331.086395</ele>
        <time>2020-08-22T09:45:26Z</time>
      </trkpt>
      <trkpt lat="47.10329" lon="6.15306">
        <ele>331.614807</ele>
        <time>2020-08-22T09:45:28Z</time>
      </trkpt>
      <trkpt lat="47.10369" lon="6.15338">
        <ele>334.287506</ele>
        <time>2020-08-22T09:45:39Z</time>
      </trkpt>
      <trkpt lat="47.10418" lon="6.15366">
        <ele>338.076263</ele>
        <time>2020-08-22T09:45:51Z</time>
      </trkpt>
      <trkpt lat="47.10464" lon="6.15421">
        <ele>345.76358</ele>
        <time>2020-08-22T09:46:05Z</time>
      </trkpt>
      <trkpt lat="47.10479" lon="6.15434">
        <ele>347.118256</ele>
        <time>2020-08-22T09:46:09Z</time>
      </trkpt>
      <trkpt lat="47.10537" lon="6.15463">
        <ele>350.70874</ele>
        <time>2020-08-22T09:46:23Z</time>
      </trkpt>
      <trkpt lat="47.10589" lon="6.15498">
        <ele>348.983093</ele>
        <time>2020-08-22T09:46:37Z</time>
      </trkpt>
      <trkpt lat="47.10654" lon="6.1556">
        <ele>355.296997</ele>
        <time>2020-08-22T09:46:55Z</time>
      </trkpt>
      <trkpt lat="47.10713" lon="6.15604">
        <ele>362.243378</ele>
        <time>2020-08-22T09:47:10Z</time>
      </trkpt>
      <trkpt lat="47.10736" lon="6.15625">
        <ele>364.243683</ele>
        <time>2020-08-22T09:47:17Z</time>
      </trkpt>
      <trkpt lat="47.10849" lon="6.15706">
        <ele>370.731598</ele>
        <time>2020-08-22T09:47:46Z</time>
      </trkpt>
      <trkpt lat="47.10889" lon="6.15732">
        <ele>376.675171</ele>
        <time>2020-08-22T09:47:56Z</time>
      </trkpt>
      <trkpt lat="47.1096" lon="6.15791">
        <ele>383.370789</ele>
        <time>2020-08-22T09:48:15Z</time>
      </trkpt>
      <trkpt lat="47.11024" lon="6.15858">
        <ele>384.56308</ele>
        <time>2020-08-22T09:48:34Z</time>
      </trkpt>
      <trkpt lat="47.11079" lon="6.15908">
        <ele>388.121552</ele>
        <time>2020-08-22T09:48:49Z</time>
      </trkpt>
      <trkpt lat="47.11115" lon="6.15946">
        <ele>391.438385</ele>
        <time>2020-08-22T09:48:59Z</time>
      </trkpt>
      <trkpt lat="47.11146" lon="6.15985">
        <ele>395.92749</ele>
        <time>2020-08-22T09:49:09Z</time>
      </trkpt>
      <trkpt lat="47.1119" lon="6.16029">
        <ele>403.799866</ele>
        <time>2020-08-22T09:49:21Z</time>
      </trkpt>
      <trkpt lat="47.11223" lon="6.16069">
        <ele>407.741211</ele>
        <time>2020-08-22T09:49:31Z</time>
      </trkpt>
      <trkpt lat="47.11248" lon="6.1611">
        <ele>406.76535</ele>
        <time>2020-08-22T09:49:40Z</time>
      </trkpt>
      <trkpt lat="47.11277" lon="6.16145">
        <ele>409.121399</ele>
        <time>2020-08-22T09:49:49Z</time>
      </trkpt>
      <trkpt lat="47.11312" lon="6.16193">
        <ele>413.781982</ele>
        <time>2020-08-22T09:50:00Z</time>
      </trkpt>
      <trkpt lat="47.11365" lon="6.16242">
        <ele>421.036316</ele>
        <time>2020-08-22T09:50:14Z</time>
      </trkpt>
      <trkpt lat="47.11381" lon="6.16253">
        <ele>424.213531</ele>
        <time>2020-08-22T09:50:19Z</time>
      </trkpt>
      <trkpt lat="47.11417" lon="6.16269">
        <ele>429.341217</ele>
        <time>2020-08-22T09:50:27Z</time>
      </trkpt>
      <trkpt lat="47.11427" lon="6.16254">
        <ele>433.709564</ele>
        <time>2020-08-22T09:50:31Z</time>
      </trkpt>
      <trkpt lat="47.11426" lon="6.1624">
        <ele>435.243744</ele>
        <time>2020-08-22T09:50:33Z</time>
      </trkpt>
      <trkpt lat="47.11414" lon="6.16229">
        <ele>434.921204</ele>
        <time>2020-08-22T09:50:36Z</time>
      </trkpt>
      <trkpt lat="47.11398" lon="6.16228">
        <ele>432.735016</ele>
        <time>2020-08-22T09:50:40Z</time>
      </trkpt>
      <trkpt lat="47.11383" lon="6.1622">
        <ele>432.308472</ele>
        <time>2020-08-22T09:50:44Z</time>
      </trkpt>
      <trkpt lat="47.11361" lon="6.16197">
        <ele>432.019806</ele>
        <time>2020-08-22T09:50:50Z</time>
      </trkpt>
      <trkpt lat="47.1136" lon="6.16186">
        <ele>434.242493</ele>
        <time>2020-08-22T09:50:52Z</time>
      </trkpt>
      <trkpt lat="47.11355" lon="6.16176">
        <ele>434.980133</ele>
        <time>2020-08-22T09:50:54Z</time>
      </trkpt>
      <trkpt lat="47.11296" lon="6.161">
        <ele>429.649963</ele>
        <time>2020-08-22T09:51:12Z</time>
      </trkpt>
      <trkpt lat="47.11197" lon="6.15925">
        <ele>437.650452</ele>
        <time>2020-08-22T09:51:48Z</time>
      </trkpt>
      <trkpt lat="47.11113" lon="6.15803">
        <ele>442.777893</ele>
        <time>2020-08-22T09:52:16Z</time>
      </trkpt>
      <trkpt lat="47.11087" lon="6.15772">
        <ele>442.259277</ele>
        <time>2020-08-22T09:52:24Z</time>
      </trkpt>
      <trkpt lat="47.11055" lon="6.15723">
        <ele>444.621887</ele>
        <time>2020-08-22T09:52:34Z</time>
      </trkpt>
      <trkpt lat="47.11006" lon="6.15624">
        <ele>448.817505</ele>
        <time>2020-08-22T09:52:54Z</time>
      </trkpt>
      <trkpt lat="47.10921" lon="6.15492">
        <ele>450.780762</ele>
        <time>2020-08-22T09:53:23Z</time>
      </trkpt>
      <trkpt lat="47.10899" lon="6.1545">
        <ele>453.683411</ele>
        <time>2020-08-22T09:53:31Z</time>
      </trkpt>
      <trkpt lat="47.10851" lon="6.15332">
        <ele>458.276764</ele>
        <time>2020-08-22T09:53:53Z</time>
      </trkpt>
      <trkpt lat="47.10844" lon="6.15289">
        <ele>459.948761</ele>
        <time>2020-08-22T09:54:00Z</time>
      </trkpt>
      <trkpt lat="47.1082" lon="6.15215">
        <ele>462.891388</ele>
        <time>2020-08-22T09:54:13Z</time>
      </trkpt>
      <trkpt lat="47.10807" lon="6.1511">
        <ele>457.347504</ele>
        <time>2020-08-22T09:54:30Z</time>
      </trkpt>
      <trkpt lat="47.10798" lon="6.15108">
        <ele>453.562317</ele>
        <time>2020-08-22T09:54:32Z</time>
      </trkpt>
      <trkpt lat="47.10789" lon="6.15108">
        <ele>450.391327</ele>
        <time>2020-08-22T09:54:34Z</time>
      </trkpt>
      <trkpt lat="47.10788" lon="6.1511">
        <ele>450.831696</ele>
        <time>2020-08-22T09:54:35Z</time>
      </trkpt>
      <trkpt lat="47.10788" lon="6.1512">
        <ele>454.328705</ele>
        <time>2020-08-22T09:54:36Z</time>
      </trkpt>
      <trkpt lat="47.10804" lon="6.15103">
        <ele>454.247711</ele>
        <time>2020-08-22T09:54:41Z</time>
      </trkpt>
      <trkpt lat="47.10817" lon="6.15083">
        <ele>454.912506</ele>
        <time>2020-08-22T09:54:45Z</time>
      </trkpt>
      <trkpt lat="47.10835" lon="6.15064">
        <ele>461.96463</ele>
        <time>2020-08-22T09:54:50Z</time>
      </trkpt>
      <trkpt lat="47.10855" lon="6.15047">
        <ele>461.551758</ele>
        <time>2020-08-22T09:54:56Z</time>
      </trkpt>
      <trkpt lat="47.10876" lon="6.15034">
        <ele>464.424988</ele>
        <time>2020-08-22T09:55:01Z</time>
      </trkpt>
      <trkpt lat="47.10902" lon="6.15011">
        <ele>465.857086</ele>
        <time>2020-08-22T09:55:08Z</time>
      </trkpt>
      <trkpt lat="47.10923" lon="6.14984">
        <ele>466.555328</ele>
        <time>2020-08-22T09:55:15Z</time>
      </trkpt>
      <trkpt lat="47.10943" lon="6.14967">
        <ele>465.596191</ele>
        <time>2020-08-22T09:55:20Z</time>
      </trkpt>
      <trkpt lat="47.10981" lon="6.14957">
        <ele>463.899567</ele>
        <time>2020-08-22T09:55:29Z</time>
      </trkpt>
      <trkpt lat="47.11002" lon="6.14962">
        <ele>461.361572</ele>
        <time>2020-08-22T09:55:34Z</time>
      </trkpt>
      <trkpt lat="47.11036" lon="6.14988">
        <ele>459.605042</ele>
        <time>2020-08-22T09:55:43Z</time>
      </trkpt>
      <trkpt lat="47.11086" lon="6.15036">
        <ele>454.699219</ele>
        <time>2020-08-22T09:55:57Z</time>
      </trkpt>
      <trkpt lat="47.11116" lon="6.1507">
        <ele>452.286011</ele>
        <time>2020-08-22T09:56:06Z</time>
      </trkpt>
      <trkpt lat="47.11152" lon="6.15101">
        <ele>447.629395</ele>
        <time>2020-08-22T09:56:16Z</time>
      </trkpt>
      <trkpt lat="47.11167" lon="6.15119">
        <ele>449.806824</ele>
        <time>2020-08-22T09:56:20Z</time>
      </trkpt>
      <trkpt lat="47.11234" lon="6.15153">
        <ele>452.867462</ele>
        <time>2020-08-22T09:56:37Z</time>
      </trkpt>
      <trkpt lat="47.11283" lon="6.15155">
        <ele>451.537933</ele>
        <time>2020-08-22T09:56:48Z</time>
      </trkpt>
      <trkpt lat="47.11294" lon="6.15146">
        <ele>449.504456</ele>
        <time>2020-08-22T09:56:51Z</time>
      </trkpt>
      <trkpt lat="47.11329" lon="6.15092">
        <ele>434.36618</ele>
        <time>2020-08-22T09:57:03Z</time>
      </trkpt>
      <trkpt lat="47.11346" lon="6.15072">
        <ele>444.190521</ele>
        <time>2020-08-22T09:57:08Z</time>
      </trkpt>
      <trkpt lat="47.11352" lon="6.15051">
        <ele>452.151489</ele>
        <time>2020-08-22T09:57:12Z</time>
      </trkpt>
      <trkpt lat="47.11332" lon="6.15042">
        <ele>450.742676</ele>
        <time>2020-08-22T09:57:16Z</time>
      </trkpt>
      <trkpt lat="47.11298" lon="6.15034">
        <ele>446.636444</ele>
        <time>2020-08-22T09:57:25Z</time>
      </trkpt>
      <trkpt lat="47.11288" lon="6.15029">
        <ele>446.202881</ele>
        <time>2020-08-22T09:57:27Z</time>
      </trkpt>
      <trkpt lat="47.11277" lon="6.15012">
        <ele>444.055298</ele>
        <time>2020-08-22T09:57:31Z</time>
      </trkpt>
      <trkpt lat="47.11271" lon="6.15">
        <ele>441.991241</ele>
        <time>2020-08-22T09:57:33Z</time>
      </trkpt>
      <trkpt lat="47.11264" lon="6.14976">
        <ele>440.207489</ele>
        <time>2020-08-22T09:57:37Z</time>
      </trkpt>
      <trkpt lat="47.11266" lon="6.14976">
        <ele>441.464111</ele>
        <time>2020-08-22T09:57:38Z</time>
      </trkpt>
      <trkpt lat="47.11279" lon="6.14924">
        <ele>445.254669</ele>
        <time>2020-08-22T09:57:47Z</time>
      </trkpt>
      <trkpt lat="47.11299" lon="6.14904">
        <ele>450.39801</ele>
        <time>2020-08-22T09:57:52Z</time>
      </trkpt>
      <trkpt lat="47.11338" lon="6.14881">
        <ele>450.651733</ele>
        <time>2020-08-22T09:58:02Z</time>
      </trkpt>
      <trkpt lat="47.11356" lon="6.14874">
        <ele>450.766205</ele>
        <time>2020-08-22T09:58:06Z</time>
      </trkpt>
      <trkpt lat="47.11388" lon="6.14848">
        <ele>448.505066</ele>
        <time>2020-08-22T09:58:15Z</time>
      </trkpt>
      <trkpt lat="47.11412" lon="6.14839">
        <ele>449.482483</ele>
        <time>2020-08-22T09:58:21Z</time>
      </trkpt>
      <trkpt lat="47.11397" lon="6.14842">
        <ele>447.94812</ele>
        <time>2020-08-22T09:58:24Z</time>
      </trkpt>
      <trkpt lat="47.11396" lon="6.14847">
        <ele>449.301331</ele>
        <time>2020-08-22T09:58:25Z</time>
      </trkpt>
      <trkpt lat="47.11417" lon="6.14841">
        <ele>450.860413</ele>
        <time>2020-08-22T09:58:30Z</time>
      </trkpt>
      <trkpt lat="47.11437" lon="6.1483">
        <ele>447.236206</ele>
        <time>2020-08-22T09:58:35Z</time>
      </trkpt>
      <trkpt lat="47.11448" lon="6.14829">
        <ele>444.956604</ele>
        <time>2020-08-22T09:58:38Z</time>
      </trkpt>
      <trkpt lat="47.11476" lon="6.14842">
        <ele>445.909485</ele>
        <time>2020-08-22T09:58:44Z</time>
      </trkpt>
      <trkpt lat="47.11514" lon="6.1488">
        <ele>452.383301</ele>
        <time>2020-08-22T09:58:55Z</time>
      </trkpt>
      <trkpt lat="47.11536" lon="6.14896">
        <ele>461.764008</ele>
        <time>2020-08-22T09:59:01Z</time>
      </trkpt>
      <trkpt lat="47.11539" lon="6.14893">
        <ele>462.020752</ele>
        <time>2020-08-22T09:59:02Z</time>
      </trkpt>
      <trkpt lat="47.11542" lon="6.14867">
        <ele>458.19339</ele>
        <time>2020-08-22T09:59:06Z</time>
      </trkpt>
      <trkpt lat="47.11546" lon="6.14796">
        <ele>451.89267</ele>
        <time>2020-08-22T09:59:17Z</time>
      </trkpt>
      <trkpt lat="47.11553" lon="6.14762">
        <ele>452.993347</ele>
        <time>2020-08-22T09:59:23Z</time>
      </trkpt>
      <trkpt lat="47.11578" lon="6.14679">
        <ele>455.688812</ele>
        <time>2020-08-22T09:59:37Z</time>
      </trkpt>
      <trkpt lat="47.1159" lon="6.14662">
        <ele>457.549072</ele>
        <time>2020-08-22T09:59:41Z</time>
      </trkpt>
      <trkpt lat="47.11615" lon="6.14614">
        <ele>457.960785</ele>
        <time>2020-08-22T09:59:51Z</time>
      </trkpt>
      <trkpt lat="47.11647" lon="6.14566">
        <ele>455.329102</ele>
        <time>2020-08-22T10:00:01Z</time>
      </trkpt>
      <trkpt lat="47.11666" lon="6.14552">
        <ele>458.356842</ele>
        <time>2020-08-22T10:00:06Z</time>
      </trkpt>
      <trkpt lat="47.11701" lon="6.14539">
        <ele>457.767792</ele>
        <time>2020-08-22T10:00:15Z</time>
      </trkpt>
      <trkpt lat="47.11721" lon="6.14539">
        <ele>456.485107</ele>
        <time>2020-08-22T10:00:20Z</time>
      </trkpt>
      <trkpt lat="47.11764" lon="6.14563">
        <ele>455.852905</ele>
        <time>2020-08-22T10:00:30Z</time>
      </trkpt>
      <trkpt lat="47.11786" lon="6.14588">
        <ele>458.260864</ele>
        <time>2020-08-22T10:00:37Z</time>
      </trkpt>
      <trkpt lat="47.11805" lon="6.14605">
        <ele>458.232849</ele>
        <time>2020-08-22T10:00:42Z</time>
      </trkpt>
      <trkpt lat="47.11829" lon="6.14635">
        <ele>458.587219</ele>
        <time>2020-08-22T10:00:49Z</time>
      </trkpt>
      <trkpt lat="47.11856" lon="6.14654">
        <ele>454.587097</ele>
        <time>2020-08-22T10:00:56Z</time>
      </trkpt>
      <trkpt lat="47.11871" lon="6.14678">
        <ele>452.486206</ele>
        <time>2020-08-22T10:01:02Z</time>
      </trkpt>
      <trkpt lat="47.11879" lon="6.14715">
        <ele>450.524384</ele>
        <time>2020-08-22T10:01:08Z</time>
      </trkpt>
      <trkpt lat="47.11874" lon="6.14736">
        <ele>453.08606</ele>
        <time>2020-08-22T10:01:11Z</time>
      </trkpt>
      <trkpt lat="47.11848" lon="6.148">
        <ele>461.556458</ele>
        <time>2020-08-22T10:01:23Z</time>
      </trkpt>
      <trkpt lat="47.11837" lon="6.14881">
        <ele>459.430267</ele>
        <time>2020-08-22T10:01:36Z</time>
      </trkpt>
      <trkpt lat="47.11836" lon="6.14901">
        <ele>459.514496</ele>
        <time>2020-08-22T10:01:39Z</time>
      </trkpt>
      <trkpt lat="47.11842" lon="6.1491">
        <ele>459.824005</ele>
        <time>2020-08-22T10:01:41Z</time>
      </trkpt>
      <trkpt lat="47.11852" lon="6.14891">
        <ele>459.14389</ele>
        <time>2020-08-22T10:01:45Z</time>
      </trkpt>
      <trkpt lat="47.11854" lon="6.14893">
        <ele>459.214691</ele>
        <time>2020-08-22T10:01:46Z</time>
      </trkpt>
      <trkpt lat="47.1188" lon="6.14828">
        <ele>452.811432</ele>
        <time>2020-08-22T10:01:58Z</time>
      </trkpt>
      <trkpt lat="47.11904" lon="6.14787">
        <ele>456.064423</ele>
        <time>2020-08-22T10:02:06Z</time>
      </trkpt>
      <trkpt lat="47.1193" lon="6.14757">
        <ele>456.388611</ele>
        <time>2020-08-22T10:02:14Z</time>
      </trkpt>
      <trkpt lat="47.11945" lon="6.14745">
        <ele>458.349518</ele>
        <time>2020-08-22T10:02:18Z</time>
      </trkpt>
      <trkpt lat="47.11982" lon="6.14722">
        <ele>462.911438</ele>
        <time>2020-08-22T10:02:27Z</time>
      </trkpt>
      <trkpt lat="47.11996" lon="6.1471">
        <ele>462.015869</ele>
        <time>2020-08-22T10:02:31Z</time>
      </trkpt>
      <trkpt lat="47.12012" lon="6.14704">
        <ele>462.163422</ele>
        <time>2020-08-22T10:02:35Z</time>
      </trkpt>
      <trkpt lat="47.12016" lon="6.147">
        <ele>461.491577</ele>
        <time>2020-08-22T10:02:36Z</time>
      </trkpt>
      <trkpt lat="47.12016" lon="6.14682">
        <ele>456.867004</ele>
        <time>2020-08-22T10:02:39Z</time>
      </trkpt>
      <trkpt lat="47.1198" lon="6.1466">
        <ele>456.221924</ele>
        <time>2020-08-22T10:02:48Z</time>
      </trkpt>
      <trkpt lat="47.1196" lon="6.14639">
        <ele>454.435852</ele>
        <time>2020-08-22T10:02:54Z</time>
      </trkpt>
      <trkpt lat="47.11954" lon="6.14629">
        <ele>453.439423</ele>
        <time>2020-08-22T10:02:56Z</time>
      </trkpt>
      <trkpt lat="47.11941" lon="6.14582">
        <ele>454.27359</ele>
        <time>2020-08-22T10:03:04Z</time>
      </trkpt>
      <trkpt lat="47.1194" lon="6.14546">
        <ele>459.068939</ele>
        <time>2020-08-22T10:03:10Z</time>
      </trkpt>
      <trkpt lat="47.11926" lon="6.14476">
        <ele>465.211029</ele>
        <time>2020-08-22T10:03:21Z</time>
      </trkpt>
      <trkpt lat="47.11924" lon="6.1445">
        <ele>469.782959</ele>
        <time>2020-08-22T10:03:26Z</time>
      </trkpt>
      <trkpt lat="47.11917" lon="6.14428">
        <ele>470.642242</ele>
        <time>2020-08-22T10:03:29Z</time>
      </trkpt>
      <trkpt lat="47.11897" lon="6.14386">
        <ele>466.839996</ele>
        <time>2020-08-22T10:03:38Z</time>
      </trkpt>
      <trkpt lat="47.11891" lon="6.14357">
        <ele>467.44696</ele>
        <time>2020-08-22T10:03:42Z</time>
      </trkpt>
      <trkpt lat="47.11885" lon="6.14308">
        <ele>467.672241</ele>
        <time>2020-08-22T10:03:50Z</time>
      </trkpt>
      <trkpt lat="47.11886" lon="6.14289">
        <ele>469.155762</ele>
        <time>2020-08-22T10:03:53Z</time>
      </trkpt>
      <trkpt lat="47.11874" lon="6.14243">
        <ele>465.18811</ele>
        <time>2020-08-22T10:04:01Z</time>
      </trkpt>
      <trkpt lat="47.11868" lon="6.14224">
        <ele>463.77774</ele>
        <time>2020-08-22T10:04:04Z</time>
      </trkpt>
      <trkpt lat="47.11853" lon="6.14192">
        <ele>461.002869</ele>
        <time>2020-08-22T10:04:11Z</time>
      </trkpt>
      <trkpt lat="47.11828" lon="6.14155">
        <ele>464.087921</ele>
        <time>2020-08-22T10:04:19Z</time>
      </trkpt>
      <trkpt lat="47.11797" lon="6.14151">
        <ele>463.015442</ele>
        <time>2020-08-22T10:04:26Z</time>
      </trkpt>
      <trkpt lat="47.11775" lon="6.14158">
        <ele>461.725006</ele>
        <time>2020-08-22T10:04:31Z</time>
      </trkpt>
      <trkpt lat="47.11756" lon="6.14159">
        <ele>460.479736</ele>
        <time>2020-08-22T10:04:36Z</time>
      </trkpt>
      <trkpt lat="47.11709" lon="6.14145">
        <ele>461.355957</ele>
        <time>2020-08-22T10:04:47Z</time>
      </trkpt>
      <trkpt lat="47.11591" lon="6.14145">
        <ele>467.623444</ele>
        <time>2020-08-22T10:05:15Z</time>
      </trkpt>
      <trkpt lat="47.11543" lon="6.14149">
        <ele>468.013367</ele>
        <time>2020-08-22T10:05:26Z</time>
      </trkpt>
      <trkpt lat="47.11522" lon="6.14148">
        <ele>467.668793</ele>
        <time>2020-08-22T10:05:31Z</time>
      </trkpt>
      <trkpt lat="47.11442" lon="6.14197">
        <ele>461.404877</ele>
        <time>2020-08-22T10:05:51Z</time>
      </trkpt>
      <trkpt lat="47.11415" lon="6.14198">
        <ele>462.604279</ele>
        <time>2020-08-22T10:05:57Z</time>
      </trkpt>
      <trkpt lat="47.114" lon="6.14205">
        <ele>462.872589</ele>
        <time>2020-08-22T10:06:01Z</time>
      </trkpt>
      <trkpt lat="47.11349" lon="6.14245">
        <ele>463.496765</ele>
        <time>2020-08-22T10:06:15Z</time>
      </trkpt>
      <trkpt lat="47.11332" lon="6.14241">
        <ele>463.804199</ele>
        <time>2020-08-22T10:06:19Z</time>
      </trkpt>
      <trkpt lat="47.11319" lon="6.14229">
        <ele>463.212555</ele>
        <time>2020-08-22T10:06:22Z</time>
      </trkpt>
      <trkpt lat="47.11299" lon="6.14229">
        <ele>461.852936</ele>
        <time>2020-08-22T10:06:27Z</time>
      </trkpt>
      <trkpt lat="47.11273" lon="6.14238">
        <ele>460.20462</ele>
        <time>2020-08-22T10:06:33Z</time>
      </trkpt>
      <trkpt lat="47.11258" lon="6.14236">
        <ele>455.841736</ele>
        <time>2020-08-22T10:06:37Z</time>
      </trkpt>
      <trkpt lat="47.11248" lon="6.14227">
        <ele>450.073242</ele>
        <time>2020-08-22T10:06:39Z</time>
      </trkpt>
      <trkpt lat="47.11228" lon="6.14235">
        <ele>443.626495</ele>
        <time>2020-08-22T10:06:44Z</time>
      </trkpt>
      <trkpt lat="47.11224" lon="6.14221">
        <ele>437.657837</ele>
        <time>2020-08-22T10:06:47Z</time>
      </trkpt>
      <trkpt lat="47.11229" lon="6.14225">
        <ele>441.330963</ele>
        <time>2020-08-22T10:06:48Z</time>
      </trkpt>
      <trkpt lat="47.11249" lon="6.14227">
        <ele>450.472748</ele>
        <time>2020-08-22T10:06:53Z</time>
      </trkpt>
      <trkpt lat="47.11263" lon="6.14237">
        <ele>457.952393</ele>
        <time>2020-08-22T10:06:56Z</time>
      </trkpt>
      <trkpt lat="47.11287" lon="6.14232">
        <ele>461.259491</ele>
        <time>2020-08-22T10:07:02Z</time>
      </trkpt>
      <trkpt lat="47.11298" lon="6.14227">
        <ele>461.151855</ele>
        <time>2020-08-22T10:07:05Z</time>
      </trkpt>
      <trkpt lat="47.11316" lon="6.14226">
        <ele>462.571991</ele>
        <time>2020-08-22T10:07:09Z</time>
      </trkpt>
      <trkpt lat="47.11337" lon="6.14245">
        <ele>463.630402</ele>
        <time>2020-08-22T10:07:15Z</time>
      </trkpt>
      <trkpt lat="47.1136" lon="6.14232">
        <ele>463.569489</ele>
        <time>2020-08-22T10:07:20Z</time>
      </trkpt>
      <trkpt lat="47.11357" lon="6.14216">
        <ele>462.169189</ele>
        <time>2020-08-22T10:07:23Z</time>
      </trkpt>
      <trkpt lat="47.11365" lon="6.14224">
        <ele>462.810059</ele>
        <time>2020-08-22T10:07:25Z</time>
      </trkpt>
      <trkpt lat="47.11375" lon="6.14222">
        <ele>462.572998</ele>
        <time>2020-08-22T10:07:28Z</time>
      </trkpt>
      <trkpt lat="47.11415" lon="6.1419">
        <ele>463.071869</ele>
        <time>2020-08-22T10:07:38Z</time>
      </trkpt>
      <trkpt lat="47.1142" lon="6.14176">
        <ele>463.866486</ele>
        <time>2020-08-22T10:07:41Z</time>
      </trkpt>
      <trkpt lat="47.11418" lon="6.14145">
        <ele>461.184692</ele>
        <time>2020-08-22T10:07:46Z</time>
      </trkpt>
      <trkpt lat="47.11422" lon="6.14095">
        <ele>456.084015</ele>
        <time>2020-08-22T10:07:54Z</time>
      </trkpt>
      <trkpt lat="47.11433" lon="6.14029">
        <ele>452.166382</ele>
        <time>2020-08-22T10:08:04Z</time>
      </trkpt>
      <trkpt lat="47.11428" lon="6.14003">
        <ele>452.045502</ele>
        <time>2020-08-22T10:08:09Z</time>
      </trkpt>
      <trkpt lat="47.11419" lon="6.14">
        <ele>450.152496</ele>
        <time>2020-08-22T10:08:11Z</time>
      </trkpt>
      <trkpt lat="47.11398" lon="6.14002">
        <ele>443.783783</ele>
        <time>2020-08-22T10:08:16Z</time>
      </trkpt>
      <trkpt lat="47.11388" lon="6.13999">
        <ele>440.832733</ele>
        <time>2020-08-22T10:08:18Z</time>
      </trkpt>
      <trkpt lat="47.1134" lon="6.13977">
        <ele>428.377563</ele>
        <time>2020-08-22T10:08:30Z</time>
      </trkpt>
      <trkpt lat="47.11307" lon="6.1397">
        <ele>418.983582</ele>
        <time>2020-08-22T10:08:38Z</time>
      </trkpt>
      <trkpt lat="47.11309" lon="6.13967">
        <ele>420.317444</ele>
        <time>2020-08-22T10:08:38Z</time>
      </trkpt>
      <trkpt lat="47.11311" lon="6.13972">
        <ele>419.797913</ele>
        <time>2020-08-22T10:08:39Z</time>
      </trkpt>
      <trkpt lat="47.11323" lon="6.13975">
        <ele>422.866241</ele>
        <time>2020-08-22T10:08:42Z</time>
      </trkpt>
      <trkpt lat="47.11329" lon="6.13985">
        <ele>423.436646</ele>
        <time>2020-08-22T10:08:44Z</time>
      </trkpt>
      <trkpt lat="47.11341" lon="6.14016">
        <ele>422.651306</ele>
        <time>2020-08-22T10:08:50Z</time>
      </trkpt>
      <trkpt lat="47.11341" lon="6.14043">
        <ele>420.931885</ele>
        <time>2020-08-22T10:08:54Z</time>
      </trkpt>
      <trkpt lat="47.11323" lon="6.14051">
        <ele>417.543976</ele>
        <time>2020-08-22T10:08:59Z</time>
      </trkpt>
      <trkpt lat="47.11288" lon="6.14059">
        <ele>409.522491</ele>
        <time>2020-08-22T10:09:07Z</time>
      </trkpt>
      <trkpt lat="47.11264" lon="6.14068">
        <ele>405.002411</ele>
        <time>2020-08-22T10:09:13Z</time>
      </trkpt>
      <trkpt lat="47.11257" lon="6.14075">
        <ele>404.61142</ele>
        <time>2020-08-22T10:09:15Z</time>
      </trkpt>
      <trkpt lat="47.11198" lon="6.14091">
        <ele>392.18399</ele>
        <time>2020-08-22T10:09:29Z</time>
      </trkpt>
      <trkpt lat="47.11186" lon="6.14097">
        <ele>390.085114</ele>
        <time>2020-08-22T10:09:32Z</time>
      </trkpt>
      <trkpt lat="47.11156" lon="6.14102">
        <ele>382.207489</ele>
        <time>2020-08-22T10:09:39Z</time>
      </trkpt>
      <trkpt lat="47.11104" lon="6.1412">
        <ele>372.62381</ele>
        <time>2020-08-22T10:09:51Z</time>
      </trkpt>
      <trkpt lat="47.11087" lon="6.1413">
        <ele>370.104401</ele>
        <time>2020-08-22T10:09:55Z</time>
      </trkpt>
      <trkpt lat="47.11053" lon="6.14163">
        <ele>365.213959</ele>
        <time>2020-08-22T10:10:05Z</time>
      </trkpt>
      <trkpt lat="47.11009" lon="6.14212">
        <ele>358.771881</ele>
        <time>2020-08-22T10:10:18Z</time>
      </trkpt>
      <trkpt lat="47.10995" lon="6.14221">
        <ele>356.88446</ele>
        <time>2020-08-22T10:10:21Z</time>
      </trkpt>
      <trkpt lat="47.10991" lon="6.1422">
        <ele>356.410736</ele>
        <time>2020-08-22T10:10:22Z</time>
      </trkpt>
      <trkpt lat="47.10948" lon="6.14133">
        <ele>349.63501</ele>
        <time>2020-08-22T10:10:39Z</time>
      </trkpt>
      <trkpt lat="47.10897" lon="6.14024">
        <ele>349.457825</ele>
        <time>2020-08-22T10:11:00Z</time>
      </trkpt>
      <trkpt lat="47.10888" lon="6.14">
        <ele>349.932159</ele>
        <time>2020-08-22T10:11:05Z</time>
      </trkpt>
      <trkpt lat="47.1087" lon="6.13995">
        <ele>348.51062</ele>
        <time>2020-08-22T10:11:09Z</time>
      </trkpt>
      <trkpt lat="47.10798" lon="6.14">
        <ele>340.627686</ele>
        <time>2020-08-22T10:11:26Z</time>
      </trkpt>
      <trkpt lat="47.10769" lon="6.13977">
        <ele>338.931244</ele>
        <time>2020-08-22T10:11:34Z</time>
      </trkpt>
      <trkpt lat="47.10756" lon="6.13949">
        <ele>338.493805</ele>
        <time>2020-08-22T10:11:39Z</time>
      </trkpt>
      <trkpt lat="47.10732" lon="6.13851">
        <ele>339.91803</ele>
        <time>2020-08-22T10:11:56Z</time>
      </trkpt>
      <trkpt lat="47.10703" lon="6.13766">
        <ele>341.377899</ele>
        <time>2020-08-22T10:12:11Z</time>
      </trkpt>
      <trkpt lat="47.10684" lon="6.13737">
        <ele>341.27594</ele>
        <time>2020-08-22T10:12:17Z</time>
      </trkpt>
      <trkpt lat="47.10681" lon="6.13724">
        <ele>341.913879</ele>
        <time>2020-08-22T10:12:19Z</time>
      </trkpt>
      <trkpt lat="47.10674" lon="6.13712">
        <ele>342.357849</ele>
        <time>2020-08-22T10:12:22Z</time>
      </trkpt>
      <trkpt lat="47.10663" lon="6.1371">
        <ele>340.8815</ele>
        <time>2020-08-22T10:12:24Z</time>
      </trkpt>
      <trkpt lat="47.1065" lon="6.13718">
        <ele>338.234436</ele>
        <time>2020-08-22T10:12:28Z</time>
      </trkpt>
      <trkpt lat="47.10626" lon="6.13714">
        <ele>336.068054</ele>
        <time>2020-08-22T10:12:33Z</time>
      </trkpt>
      <trkpt lat="47.10624" lon="6.13707">
        <ele>336.291992</ele>
        <time>2020-08-22T10:12:34Z</time>
      </trkpt>
      <trkpt lat="47.10642" lon="6.13683">
        <ele>340.419952</ele>
        <time>2020-08-22T10:12:40Z</time>
      </trkpt>
      <trkpt lat="47.10649" lon="6.13685">
        <ele>341.270813</ele>
        <time>2020-08-22T10:12:42Z</time>
      </trkpt>
      <trkpt lat="47.10651" lon="6.13689">
        <ele>341.164825</ele>
        <time>2020-08-22T10:12:43Z</time>
      </trkpt>
      <trkpt lat="47.10649" lon="6.13688">
        <ele>340.979187</ele>
        <time>2020-08-22T10:12:43Z</time>
      </trkpt>
      <trkpt lat="47.10633" lon="6.13632">
        <ele>342.795471</ele>
        <time>2020-08-22T07:57:23Z</time>
      </trkpt>
      <trkpt lat="47.1064" lon="6.13623">
        <ele>345.154388</ele>
        <time>2020-08-22T07:57:25Z</time>
      </trkpt>
      <trkpt lat="47.10616" lon="6.13527">
        <ele>345.041718</ele>
        <time>2020-08-22T07:57:41Z</time>
      </trkpt>
      <trkpt lat="47.10563" lon="6.13425">
        <ele>343.255066</ele>
        <time>2020-08-22T07:58:02Z</time>
      </trkpt>
      <trkpt lat="47.10541" lon="6.13375">
        <ele>343.930054</ele>
        <time>2020-08-22T07:58:11Z</time>
      </trkpt>
      <trkpt lat="47.10514" lon="6.1331">
        <ele>344.254517</ele>
        <time>2020-08-22T07:58:23Z</time>
      </trkpt>
      <trkpt lat="47.10489" lon="6.13242">
        <ele>345.796509</ele>
        <time>2020-08-22T07:58:36Z</time>
      </trkpt>
      <trkpt lat="47.10475" lon="6.13196">
        <ele>347.86969</ele>
        <time>2020-08-22T07:58:44Z</time>
      </trkpt>
      <trkpt lat="47.10472" lon="6.13161">
        <ele>350.01889</ele>
        <time>2020-08-22T07:58:49Z</time>
      </trkpt>
      <trkpt lat="47.10473" lon="6.13149">
        <ele>350.709015</ele>
        <time>2020-08-22T07:58:51Z</time>
      </trkpt>
      <trkpt lat="47.1048" lon="6.13125">
        <ele>352.51709</ele>
        <time>2020-08-22T07:58:55Z</time>
      </trkpt>
      <trkpt lat="47.1049" lon="6.13104">
        <ele>353.660004</ele>
        <time>2020-08-22T07:58:59Z</time>
      </trkpt>
      <trkpt lat="47.10516" lon="6.13072">
        <ele>355.052643</ele>
        <time>2020-08-22T07:59:07Z</time>
      </trkpt>
      <trkpt lat="47.1055" lon="6.13037">
        <ele>356.086243</ele>
        <time>2020-08-22T07:59:17Z</time>
      </trkpt>
      <trkpt lat="47.10662" lon="6.12911">
        <ele>357.178741</ele>
        <time>2020-08-22T07:59:50Z</time>
      </trkpt>
      <trkpt lat="47.10692" lon="6.12873">
        <ele>356.645721</ele>
        <time>2020-08-22T07:59:59Z</time>
      </trkpt>
      <trkpt lat="47.10789" lon="6.12763">
        <ele>350.927307</ele>
        <time>2020-08-22T08:00:28Z</time>
      </trkpt>
      <trkpt lat="47.10905" lon="6.12626">
        <ele>346.863739</ele>
        <time>2020-08-22T08:01:03Z</time>
      </trkpt>
      <trkpt lat="47.10947" lon="6.12584">
        <ele>345.6138</ele>
        <time>2020-08-22T08:01:14Z</time>
      </trkpt>
      <trkpt lat="47.10941" lon="6.12567">
        <ele>344.907837</ele>
        <time>2020-08-22T08:01:18Z</time>
      </trkpt>
      <trkpt lat="47.10933" lon="6.12557">
        <ele>344.373199</ele>
        <time>2020-08-22T08:01:20Z</time>
      </trkpt>
      <trkpt lat="47.10938" lon="6.12556">
        <ele>344.414764</ele>
        <time>2020-08-22T08:01:21Z</time>
      </trkpt>
      <trkpt lat="47.10958" lon="6.12532">
        <ele>343.95285</ele>
        <time>2020-08-22T08:01:27Z</time>
      </trkpt>
      <trkpt lat="47.10956" lon="6.12532">
        <ele>343.860413</ele>
        <time>2020-08-22T08:01:28Z</time>
      </trkpt>
      <trkpt lat="47.11005" lon="6.12455">
        <ele>343.904388</ele>
        <time>2020-08-22T08:01:44Z</time>
      </trkpt>
      <trkpt lat="47.11055" lon="6.12344">
        <ele>343.829895</ele>
        <time>2020-08-22T08:02:06Z</time>
      </trkpt>
      <trkpt lat="47.11089" lon="6.12259">
        <ele>344.376129</ele>
        <time>2020-08-22T08:02:21Z</time>
      </trkpt>
      <trkpt lat="47.11165" lon="6.11936">
        <ele>342.502258</ele>
        <time>2020-08-22T08:03:16Z</time>
      </trkpt>
      <trkpt lat="47.11176" lon="6.11899">
        <ele>342.702515</ele>
        <time>2020-08-22T08:03:22Z</time>
      </trkpt>
      <trkpt lat="47.1118" lon="6.11862">
        <ele>341.547485</ele>
        <time>2020-08-22T08:03:28Z</time>
      </trkpt>
      <trkpt lat="47.11184" lon="6.11852">
        <ele>341.84375</ele>
        <time>2020-08-22T08:03:30Z</time>
      </trkpt>
      <trkpt lat="47.11191" lon="6.11805">
        <ele>343.004059</ele>
        <time>2020-08-22T08:03:37Z</time>
      </trkpt>
      <trkpt lat="47.112" lon="6.11802">
        <ele>344.099579</ele>
        <time>2020-08-22T08:03:40Z</time>
      </trkpt>
      <trkpt lat="47.11205" lon="6.11811">
        <ele>344.879181</ele>
        <time>2020-08-22T08:03:41Z</time>
      </trkpt>
      <trkpt lat="47.1121" lon="6.11849">
        <ele>346.821686</ele>
        <time>2020-08-22T08:03:48Z</time>
      </trkpt>
      <trkpt lat="47.11199" lon="6.11878">
        <ele>346.130005</ele>
        <time>2020-08-22T08:03:53Z</time>
      </trkpt>
      <trkpt lat="47.1118" lon="6.11948">
        <ele>346.243134</ele>
        <time>2020-08-22T08:04:05Z</time>
      </trkpt>
      <trkpt lat="47.11185" lon="6.11959">
        <ele>347.95047</ele>
        <time>2020-08-22T08:04:07Z</time>
      </trkpt>
      <trkpt lat="47.11211" lon="6.11939">
        <ele>351.832764</ele>
        <time>2020-08-22T08:04:14Z</time>
      </trkpt>
      <trkpt lat="47.1122" lon="6.11926">
        <ele>352.170197</ele>
        <time>2020-08-22T08:04:17Z</time>
      </trkpt>
      <trkpt lat="47.11217" lon="6.11923">
        <ele>351.57608</ele>
        <time>2020-08-22T08:04:18Z</time>
      </trkpt>
      <trkpt lat="47.11215" lon="6.11929">
        <ele>351.727356</ele>
        <time>2020-08-22T08:04:19Z</time>
      </trkpt>
      <trkpt lat="47.11219" lon="6.11932">
        <ele>352.48587</ele>
        <time>2020-08-22T08:04:20Z</time>
      </trkpt>
      <trkpt lat="47.11229" lon="6.11926">
        <ele>353.375</ele>
        <time>2020-08-22T08:04:22Z</time>
      </trkpt>
      <trkpt lat="47.11259" lon="6.11891">
        <ele>353.854065</ele>
        <time>2020-08-22T08:04:31Z</time>
      </trkpt>
      <trkpt lat="47.11269" lon="6.11886">
        <ele>354.289917</ele>
        <time>2020-08-22T08:04:34Z</time>
      </trkpt>
      <trkpt lat="47.11291" lon="6.11869">
        <ele>354.505035</ele>
        <time>2020-08-22T08:04:39Z</time>
      </trkpt>
      <trkpt lat="47.11322" lon="6.11856">
        <ele>355.128387</ele>
        <time>2020-08-22T08:04:47Z</time>
      </trkpt>
      <trkpt lat="47.11333" lon="6.11846">
        <ele>354.412903</ele>
        <time>2020-08-22T08:04:50Z</time>
      </trkpt>
      <trkpt lat="47.1136" lon="6.11832">
        <ele>353.479218</ele>
        <time>2020-08-22T08:04:57Z</time>
      </trkpt>
      <trkpt lat="47.11384" lon="6.11824">
        <ele>353.030121</ele>
        <time>2020-08-22T08:05:02Z</time>
      </trkpt>
      <trkpt lat="47.11419" lon="6.11821">
        <ele>352.035004</ele>
        <time>2020-08-22T08:05:11Z</time>
      </trkpt>
      <trkpt lat="47.11459" lon="6.11826">
        <ele>350.594421</ele>
        <time>2020-08-22T08:05:20Z</time>
      </trkpt>
      <trkpt lat="47.115" lon="6.11838">
        <ele>348.64325</ele>
        <time>2020-08-22T08:05:30Z</time>
      </trkpt>
      <trkpt lat="47.11523" lon="6.11849">
        <ele>347.451843</ele>
        <time>2020-08-22T08:05:35Z</time>
      </trkpt>
      <trkpt lat="47.11541" lon="6.11863">
        <ele>347.197021</ele>
        <time>2020-08-22T08:05:40Z</time>
      </trkpt>
      <trkpt lat="47.11556" lon="6.1187">
        <ele>346.56897</ele>
        <time>2020-08-22T08:05:44Z</time>
      </trkpt>
      <trkpt lat="47.11635" lon="6.11938">
        <ele>342.90683</ele>
        <time>2020-08-22T08:06:05Z</time>
      </trkpt>
      <trkpt lat="47.11664" lon="6.1196">
        <ele>340.790375</ele>
        <time>2020-08-22T08:06:13Z</time>
      </trkpt>
      <trkpt lat="47.11703" lon="6.11994">
        <ele>339.509308</ele>
        <time>2020-08-22T08:06:23Z</time>
      </trkpt>
      <trkpt lat="47.11733" lon="6.12024">
        <ele>338.465363</ele>
        <time>2020-08-22T08:06:32Z</time>
      </trkpt>
      <trkpt lat="47.11736" lon="6.12023">
        <ele>337.651093</ele>
        <time>2020-08-22T08:06:33Z</time>
      </trkpt>
      <trkpt lat="47.1174" lon="6.12034">
        <ele>339.138611</ele>
        <time>2020-08-22T08:06:35Z</time>
      </trkpt>
      <trkpt lat="47.11813" lon="6.12078">
        <ele>338.316803</ele>
        <time>2020-08-22T08:06:53Z</time>
      </trkpt>
      <trkpt lat="47.11827" lon="6.12093">
        <ele>338.167786</ele>
        <time>2020-08-22T08:06:57Z</time>
      </trkpt>
      <trkpt lat="47.11841" lon="6.12103">
        <ele>337.835724</ele>
        <time>2020-08-22T08:07:01Z</time>
      </trkpt>
      <trkpt lat="47.11852" lon="6.121">
        <ele>335.578522</ele>
        <time>2020-08-22T08:07:03Z</time>
      </trkpt>
      <trkpt lat="47.11894" lon="6.12135">
        <ele>335.116913</ele>
        <time>2020-08-22T08:07:15Z</time>
      </trkpt>
      <trkpt lat="47.11921" lon="6.12169">
        <ele>334.52829</ele>
        <time>2020-08-22T08:07:23Z</time>
      </trkpt>
      <trkpt lat="47.1195" lon="6.12212">
        <ele>334.448242</ele>
        <time>2020-08-22T08:07:33Z</time>
      </trkpt>
      <trkpt lat="47.11964" lon="6.12249">
        <ele>335.26651</ele>
        <time>2020-08-22T08:07:39Z</time>
      </trkpt>
      <trkpt lat="47.11977" lon="6.12263">
        <ele>335.683502</ele>
        <time>2020-08-22T08:07:43Z</time>
      </trkpt>
      <trkpt lat="47.12001" lon="6.12296">
        <ele>335.479675</ele>
        <time>2020-08-22T08:07:51Z</time>
      </trkpt>
      <trkpt lat="47.12011" lon="6.12326">
        <ele>337.424591</ele>
        <time>2020-08-22T08:07:56Z</time>
      </trkpt>
      <trkpt lat="47.12019" lon="6.12361">
        <ele>341.257935</ele>
        <time>2020-08-22T08:08:02Z</time>
      </trkpt>
      <trkpt lat="47.12026" lon="6.12368">
        <ele>341.783325</ele>
        <time>2020-08-22T08:08:04Z</time>
      </trkpt>
      <trkpt lat="47.12042" lon="6.12363">
        <ele>340.169586</ele>
        <time>2020-08-22T08:08:08Z</time>
      </trkpt>
      <trkpt lat="47.12065" lon="6.12343">
        <ele>338.048248</ele>
        <time>2020-08-22T08:08:14Z</time>
      </trkpt>
      <trkpt lat="47.12081" lon="6.12342">
        <ele>339.323608</ele>
        <time>2020-08-22T08:08:18Z</time>
      </trkpt>
      <trkpt lat="47.12143" lon="6.12365">
        <ele>346.76535</ele>
        <time>2020-08-22T08:08:33Z</time>
      </trkpt>
      <trkpt lat="47.1217" lon="6.12372">
        <ele>349.225708</ele>
        <time>2020-08-22T08:08:39Z</time>
      </trkpt>
      <trkpt lat="47.12185" lon="6.12372">
        <ele>349.563812</ele>
        <time>2020-08-22T08:08:42Z</time>
      </trkpt>
      <trkpt lat="47.1223" lon="6.12382">
        <ele>354.240417</ele>
        <time>2020-08-22T08:08:53Z</time>
      </trkpt>
      <trkpt lat="47.12297" lon="6.12409">
        <ele>356.579742</ele>
        <time>2020-08-22T08:09:09Z</time>
      </trkpt>
      <trkpt lat="47.12335" lon="6.12427">
        <ele>358.755768</ele>
        <time>2020-08-22T08:09:19Z</time>
      </trkpt>
      <trkpt lat="47.12379" lon="6.12465">
        <ele>364.924988</ele>
        <time>2020-08-22T08:09:31Z</time>
      </trkpt>
      <trkpt lat="47.12391" lon="6.12471">
        <ele>365.237488</ele>
        <time>2020-08-22T08:09:34Z</time>
      </trkpt>
      <trkpt lat="47.12444" lon="6.12512">
        <ele>369.65802</ele>
        <time>2020-08-22T08:09:48Z</time>
      </trkpt>
      <trkpt lat="47.12483" lon="6.12537">
        <ele>373.551025</ele>
        <time>2020-08-22T08:09:57Z</time>
      </trkpt>
      <trkpt lat="47.1254" lon="6.1259">
        <ele>381.304504</ele>
        <time>2020-08-22T08:10:13Z</time>
      </trkpt>
      <trkpt lat="47.12558" lon="6.12603">
        <ele>382.607086</ele>
        <time>2020-08-22T08:10:18Z</time>
      </trkpt>
      <trkpt lat="47.12643" lon="6.12678">
        <ele>387.875885</ele>
        <time>2020-08-22T08:10:41Z</time>
      </trkpt>
      <trkpt lat="47.1277" lon="6.12783">
        <ele>395.914398</ele>
        <time>2020-08-22T08:11:15Z</time>
      </trkpt>
      <trkpt lat="47.12796" lon="6.12799">
        <ele>396.167999</ele>
        <time>2020-08-22T08:11:22Z</time>
      </trkpt>
      <trkpt lat="47.12813" lon="6.12802">
        <ele>394.957245</ele>
        <time>2020-08-22T08:11:26Z</time>
      </trkpt>
      <trkpt lat="47.12811" lon="6.12801">
        <ele>394.963196</ele>
        <time>2020-08-22T08:11:26Z</time>
      </trkpt>
      <trkpt lat="47.12819" lon="6.12805">
        <ele>395.022583</ele>
        <time>2020-08-22T08:11:28Z</time>
      </trkpt>
      <trkpt lat="47.12837" lon="6.12819">
        <ele>397.800995</ele>
        <time>2020-08-22T08:11:33Z</time>
      </trkpt>
      <trkpt lat="47.12869" lon="6.12847">
        <ele>399.513885</ele>
        <time>2020-08-22T08:11:42Z</time>
      </trkpt>
      <trkpt lat="47.12899" lon="6.12887">
        <ele>405.493439</ele>
        <time>2020-08-22T08:11:51Z</time>
      </trkpt>
      <trkpt lat="47.12932" lon="6.12916">
        <ele>407.429596</ele>
        <time>2020-08-22T08:12:00Z</time>
      </trkpt>
      <trkpt lat="47.12954" lon="6.12939">
        <ele>407.457733</ele>
        <time>2020-08-22T08:12:06Z</time>
      </trkpt>
      <trkpt lat="47.12973" lon="6.12963">
        <ele>408.942322</ele>
        <time>2020-08-22T08:12:12Z</time>
      </trkpt>
      <trkpt lat="47.13015" lon="6.13032">
        <ele>413.997925</ele>
        <time>2020-08-22T08:12:27Z</time>
      </trkpt>
      <trkpt lat="47.13036" lon="6.13059">
        <ele>413.815277</ele>
        <time>2020-08-22T08:12:33Z</time>
      </trkpt>
      <trkpt lat="47.13046" lon="6.13079">
        <ele>414.437347</ele>
        <time>2020-08-22T08:12:37Z</time>
      </trkpt>
      <trkpt lat="47.13074" lon="6.13118">
        <ele>414.012207</ele>
        <time>2020-08-22T08:12:46Z</time>
      </trkpt>
      <trkpt lat="47.13096" lon="6.13162">
        <ele>414.234497</ele>
        <time>2020-08-22T08:12:55Z</time>
      </trkpt>
      <trkpt lat="47.13111" lon="6.13178">
        <ele>413.186829</ele>
        <time>2020-08-22T08:12:59Z</time>
      </trkpt>
      <trkpt lat="47.13112" lon="6.13186">
        <ele>413.720001</ele>
        <time>2020-08-22T08:13:01Z</time>
      </trkpt>
      <trkpt lat="47.13125" lon="6.13205">
        <ele>413.360016</ele>
        <time>2020-08-22T08:13:05Z</time>
      </trkpt>
      <trkpt lat="47.13155" lon="6.1326">
        <ele>413.234528</ele>
        <time>2020-08-22T08:13:16Z</time>
      </trkpt>
      <trkpt lat="47.13163" lon="6.13279">
        <ele>413.128754</ele>
        <time>2020-08-22T08:13:20Z</time>
      </trkpt>
      <trkpt lat="47.13176" lon="6.133">
        <ele>412.914124</ele>
        <time>2020-08-22T08:13:24Z</time>
      </trkpt>
      <trkpt lat="47.13185" lon="6.13322">
        <ele>413.503754</ele>
        <time>2020-08-22T08:13:28Z</time>
      </trkpt>
      <trkpt lat="47.13189" lon="6.13339">
        <ele>413.892151</ele>
        <time>2020-08-22T08:13:31Z</time>
      </trkpt>
      <trkpt lat="47.13203" lon="6.13353">
        <ele>410.358398</ele>
        <time>2020-08-22T08:13:35Z</time>
      </trkpt>
      <trkpt lat="47.1321" lon="6.13372">
        <ele>410.622803</ele>
        <time>2020-08-22T08:13:38Z</time>
      </trkpt>
      <trkpt lat="47.13216" lon="6.1344">
        <ele>410.586609</ele>
        <time>2020-08-22T08:13:49Z</time>
      </trkpt>
      <trkpt lat="47.13225" lon="6.13484">
        <ele>409.793945</ele>
        <time>2020-08-22T08:13:57Z</time>
      </trkpt>
      <trkpt lat="47.13227" lon="6.13532">
        <ele>412.210602</ele>
        <time>2020-08-22T08:14:04Z</time>
      </trkpt>
      <trkpt lat="47.13233" lon="6.13557">
        <ele>412.334717</ele>
        <time>2020-08-22T08:14:09Z</time>
      </trkpt>
      <trkpt lat="47.13235" lon="6.13585">
        <ele>413.551666</ele>
        <time>2020-08-22T08:14:13Z</time>
      </trkpt>
      <trkpt lat="47.13252" lon="6.13646">
        <ele>410.270966</ele>
        <time>2020-08-22T08:14:23Z</time>
      </trkpt>
      <trkpt lat="47.13277" lon="6.13713">
        <ele>409.388123</ele>
        <time>2020-08-22T08:14:36Z</time>
      </trkpt>
      <trkpt lat="47.1329" lon="6.13783">
        <ele>412.433136</ele>
        <time>2020-08-22T08:14:47Z</time>
      </trkpt>
      <trkpt lat="47.13299" lon="6.13812">
        <ele>411.771088</ele>
        <time>2020-08-22T08:14:52Z</time>
      </trkpt>
      <trkpt lat="47.13322" lon="6.13867">
        <ele>405.887512</ele>
        <time>2020-08-22T08:15:02Z</time>
      </trkpt>
      <trkpt lat="47.13363" lon="6.13949">
        <ele>395.045013</ele>
        <time>2020-08-22T08:15:19Z</time>
      </trkpt>
      <trkpt lat="47.13391" lon="6.1399">
        <ele>391.096954</ele>
        <time>2020-08-22T08:15:28Z</time>
      </trkpt>
      <trkpt lat="47.13403" lon="6.14025">
        <ele>386.493469</ele>
        <time>2020-08-22T08:15:34Z</time>
      </trkpt>
      <trkpt lat="47.13411" lon="6.1408">
        <ele>382.912201</ele>
        <time>2020-08-22T08:15:43Z</time>
      </trkpt>
      <trkpt lat="47.13406" lon="6.14107">
        <ele>383.444</ele>
        <time>2020-08-22T08:15:47Z</time>
      </trkpt>
      <trkpt lat="47.13406" lon="6.14122">
        <ele>383.351135</ele>
        <time>2020-08-22T08:15:50Z</time>
      </trkpt>
      <trkpt lat="47.13415" lon="6.1416">
        <ele>383.29541</ele>
        <time>2020-08-22T08:15:56Z</time>
      </trkpt>
      <trkpt lat="47.13406" lon="6.14198">
        <ele>386.271149</ele>
        <time>2020-08-22T08:16:03Z</time>
      </trkpt>
      <trkpt lat="47.13399" lon="6.14251">
        <ele>385.636871</ele>
        <time>2020-08-22T08:16:11Z</time>
      </trkpt>
      <trkpt lat="47.134" lon="6.14275">
        <ele>383.563995</ele>
        <time>2020-08-22T08:16:15Z</time>
      </trkpt>
      <trkpt lat="47.13391" lon="6.14314">
        <ele>383.137238</ele>
        <time>2020-08-22T08:16:22Z</time>
      </trkpt>
      <trkpt lat="47.13383" lon="6.14368">
        <ele>383.169678</ele>
        <time>2020-08-22T08:16:30Z</time>
      </trkpt>
      <trkpt lat="47.13381" lon="6.14402">
        <ele>381.965302</ele>
        <time>2020-08-22T08:16:36Z</time>
      </trkpt>
      <trkpt lat="47.13354" lon="6.14515">
        <ele>380.339996</ele>
        <time>2020-08-22T08:16:55Z</time>
      </trkpt>
      <trkpt lat="47.13352" lon="6.14537">
        <ele>376.929993</ele>
        <time>2020-08-22T08:16:58Z</time>
      </trkpt>
      <trkpt lat="47.13353" lon="6.14565">
        <ele>370.859985</ele>
        <time>2020-08-22T08:17:03Z</time>
      </trkpt>
      <trkpt lat="47.1334" lon="6.14611">
        <ele>369.189514</ele>
        <time>2020-08-22T08:17:11Z</time>
      </trkpt>
      <trkpt lat="47.13334" lon="6.14664">
        <ele>363.586395</ele>
        <time>2020-08-22T08:17:19Z</time>
      </trkpt>
      <trkpt lat="47.13319" lon="6.14742">
        <ele>361.514221</ele>
        <time>2020-08-22T08:17:32Z</time>
      </trkpt>
      <trkpt lat="47.13321" lon="6.14766">
        <ele>360.147491</ele>
        <time>2020-08-22T08:17:36Z</time>
      </trkpt>
      <trkpt lat="47.13333" lon="6.14789">
        <ele>358.710663</ele>
        <time>2020-08-22T08:17:41Z</time>
      </trkpt>
      <trkpt lat="47.13337" lon="6.14809">
        <ele>357.940613</ele>
        <time>2020-08-22T08:17:44Z</time>
      </trkpt>
      <trkpt lat="47.13334" lon="6.14802">
        <ele>358.284119</ele>
        <time>2020-08-22T08:17:45Z</time>
      </trkpt>
      <trkpt lat="47.1332" lon="6.14846">
        <ele>357.934845</ele>
        <time>2020-08-22T08:17:53Z</time>
      </trkpt>
      <trkpt lat="47.13307" lon="6.14913">
        <ele>358.446259</ele>
        <time>2020-08-22T08:18:04Z</time>
      </trkpt>
      <trkpt lat="47.13306" lon="6.14945">
        <ele>357.959991</ele>
        <time>2020-08-22T08:18:09Z</time>
      </trkpt>
      <trkpt lat="47.13312" lon="6.15021">
        <ele>357.057007</ele>
        <time>2020-08-22T08:18:21Z</time>
      </trkpt>
      <trkpt lat="47.13317" lon="6.1504">
        <ele>357.210938</ele>
        <time>2020-08-22T08:18:24Z</time>
      </trkpt>
      <trkpt lat="47.1332" lon="6.15045">
        <ele>357.332092</ele>
        <time>2020-08-22T08:18:26Z</time>
      </trkpt>
      <trkpt lat="47.13327" lon="6.15047">
        <ele>357.619659</ele>
        <time>2020-08-22T08:18:27Z</time>
      </trkpt>
      <trkpt lat="47.13343" lon="6.15062">
        <ele>358.13681</ele>
        <time>2020-08-22T08:18:32Z</time>
      </trkpt>
      <trkpt lat="47.13338" lon="6.15073">
        <ele>357.864014</ele>
        <time>2020-08-22T08:18:34Z</time>
      </trkpt>
      <trkpt lat="47.13333" lon="6.15072">
        <ele>357.71051</ele>
        <time>2020-08-22T08:18:35Z</time>
      </trkpt>
      <trkpt lat="47.13337" lon="6.15083">
        <ele>357.753174</ele>
        <time>2020-08-22T08:18:37Z</time>
      </trkpt>
      <trkpt lat="47.13387" lon="6.15126">
        <ele>361.927399</ele>
        <time>2020-08-22T08:18:50Z</time>
      </trkpt>
      <trkpt lat="47.134" lon="6.15148">
        <ele>362.934479</ele>
        <time>2020-08-22T08:18:55Z</time>
      </trkpt>
      <trkpt lat="47.1341" lon="6.15172">
        <ele>363.154266</ele>
        <time>2020-08-22T08:19:00Z</time>
      </trkpt>
      <trkpt lat="47.13412" lon="6.15223">
        <ele>363.687134</ele>
        <time>2020-08-22T08:19:08Z</time>
      </trkpt>
      <trkpt lat="47.1341" lon="6.15248">
        <ele>364.049896</ele>
        <time>2020-08-22T08:19:12Z</time>
      </trkpt>
      <trkpt lat="47.13398" lon="6.15285">
        <ele>364.05603</ele>
        <time>2020-08-22T08:19:18Z</time>
      </trkpt>
      <trkpt lat="47.13339" lon="6.15417">
        <ele>362.916107</ele>
        <time>2020-08-22T08:19:43Z</time>
      </trkpt>
      <trkpt lat="47.13293" lon="6.15581">
        <ele>362.604858</ele>
        <time>2020-08-22T08:20:11Z</time>
      </trkpt>
      <trkpt lat="47.13268" lon="6.15626">
        <ele>363.468658</ele>
        <time>2020-08-22T08:20:21Z</time>
      </trkpt>
      <trkpt lat="47.13205" lon="6.15711">
        <ele>364.804535</ele>
        <time>2020-08-22T08:20:41Z</time>
      </trkpt>
      <trkpt lat="47.13183" lon="6.15749">
        <ele>365.019562</ele>
        <time>2020-08-22T08:20:49Z</time>
      </trkpt>
      <trkpt lat="47.1317" lon="6.15801">
        <ele>365</ele>
        <time>2020-08-22T08:20:57Z</time>
      </trkpt>
      <trkpt lat="47.1316" lon="6.15871">
        <ele>365</ele>
        <time>2020-08-22T08:21:09Z</time>
      </trkpt>
      <trkpt lat="47.13126" lon="6.16019">
        <ele>366</ele>
        <time>2020-08-22T08:21:34Z</time>
      </trkpt>
      <trkpt lat="47.13096" lon="6.16092">
        <ele>366.059998</ele>
        <time>2020-08-22T08:21:47Z</time>
      </trkpt>
      <trkpt lat="47.13076" lon="6.16124">
        <ele>367.320007</ele>
        <time>2020-08-22T08:21:54Z</time>
      </trkpt>
      <trkpt lat="47.13071" lon="6.16156">
        <ele>367.176605</ele>
        <time>2020-08-22T08:21:59Z</time>
      </trkpt>
      <trkpt lat="47.13072" lon="6.16209">
        <ele>366.099365</ele>
        <time>2020-08-22T08:22:08Z</time>
      </trkpt>
      <trkpt lat="47.13038" lon="6.16338">
        <ele>366.18811</ele>
        <time>2020-08-22T08:22:30Z</time>
      </trkpt>
      <trkpt lat="47.13017" lon="6.16435">
        <ele>369.777252</ele>
        <time>2020-08-22T08:22:46Z</time>
      </trkpt>
      <trkpt lat="47.13004" lon="6.16457">
        <ele>368.629852</ele>
        <time>2020-08-22T08:22:50Z</time>
      </trkpt>
      <trkpt lat="47.12982" lon="6.16459">
        <ele>366.711792</ele>
        <time>2020-08-22T08:22:56Z</time>
      </trkpt>
      <trkpt lat="47.12957" lon="6.16474">
        <ele>366.210449</ele>
        <time>2020-08-22T08:23:02Z</time>
      </trkpt>
      <trkpt lat="47.12944" lon="6.16491">
        <ele>366.663116</ele>
        <time>2020-08-22T08:23:06Z</time>
      </trkpt>
      <trkpt lat="47.12926" lon="6.16538">
        <ele>367.668182</ele>
        <time>2020-08-22T08:23:14Z</time>
      </trkpt>
      <trkpt lat="47.12891" lon="6.16692">
        <ele>367.864838</ele>
        <time>2020-08-22T08:23:40Z</time>
      </trkpt>
      <trkpt lat="47.12861" lon="6.16871">
        <ele>365.549469</ele>
        <time>2020-08-22T08:24:10Z</time>
      </trkpt>
      <trkpt lat="47.12857" lon="6.16918">
        <ele>366.062408</ele>
        <time>2020-08-22T08:24:17Z</time>
      </trkpt>
      <trkpt lat="47.12857" lon="6.16958">
        <ele>367.046936</ele>
        <time>2020-08-22T08:24:23Z</time>
      </trkpt>
      <trkpt lat="47.12862" lon="6.17007">
        <ele>368.126556</ele>
        <time>2020-08-22T08:24:31Z</time>
      </trkpt>
      <trkpt lat="47.12853" lon="6.171">
        <ele>368.594818</ele>
        <time>2020-08-22T08:24:46Z</time>
      </trkpt>
      <trkpt lat="47.12862" lon="6.17146">
        <ele>368.845612</ele>
        <time>2020-08-22T08:24:54Z</time>
      </trkpt>
      <trkpt lat="47.12862" lon="6.17177">
        <ele>368.608398</ele>
        <time>2020-08-22T08:24:59Z</time>
      </trkpt>
      <trkpt lat="47.12855" lon="6.17221">
        <ele>368.802216</ele>
        <time>2020-08-22T08:25:06Z</time>
      </trkpt>
      <trkpt lat="47.12851" lon="6.17268">
        <ele>369.556519</ele>
        <time>2020-08-22T08:25:13Z</time>
      </trkpt>
      <trkpt lat="47.12873" lon="6.17352">
        <ele>367.687988</ele>
        <time>2020-08-22T08:25:28Z</time>
      </trkpt>
      <trkpt lat="47.12882" lon="6.17409">
        <ele>368.781494</ele>
        <time>2020-08-22T08:25:37Z</time>
      </trkpt>
      <trkpt lat="47.12895" lon="6.17461">
        <ele>371.425323</ele>
        <time>2020-08-22T08:25:46Z</time>
      </trkpt>
      <trkpt lat="47.12894" lon="6.17479">
        <ele>370.395508</ele>
        <time>2020-08-22T08:25:49Z</time>
      </trkpt>
      <trkpt lat="47.12861" lon="6.17526">
        <ele>369.315002</ele>
        <time>2020-08-22T08:25:59Z</time>
      </trkpt>
      <trkpt lat="47.12865" lon="6.17532">
        <ele>368.28598</ele>
        <time>2020-08-22T08:26:01Z</time>
      </trkpt>
      <trkpt lat="47.12882" lon="6.17545">
        <ele>368.272491</ele>
        <time>2020-08-22T08:26:05Z</time>
      </trkpt>
      <trkpt lat="47.12882" lon="6.17557">
        <ele>368.55957</ele>
        <time>2020-08-22T08:26:07Z</time>
      </trkpt>
      <trkpt lat="47.12888" lon="6.17562">
        <ele>368.818848</ele>
        <time>2020-08-22T08:26:09Z</time>
      </trkpt>
      <trkpt lat="47.12897" lon="6.17585">
        <ele>368.896057</ele>
        <time>2020-08-22T08:26:13Z</time>
      </trkpt>
      <trkpt lat="47.12896" lon="6.176">
        <ele>368.690765</ele>
        <time>2020-08-22T08:26:15Z</time>
      </trkpt>
      <trkpt lat="47.12901" lon="6.17616">
        <ele>368.059509</ele>
        <time>2020-08-22T08:26:18Z</time>
      </trkpt>
      <trkpt lat="47.12923" lon="6.17648">
        <ele>368.867798</ele>
        <time>2020-08-22T08:26:25Z</time>
      </trkpt>
      <trkpt lat="47.12911" lon="6.1769">
        <ele>366.94281</ele>
        <time>2020-08-22T08:26:33Z</time>
      </trkpt>
      <trkpt lat="47.12915" lon="6.17704">
        <ele>367.455566</ele>
        <time>2020-08-22T08:26:35Z</time>
      </trkpt>
      <trkpt lat="47.12907" lon="6.1773">
        <ele>372.968933</ele>
        <time>2020-08-22T08:26:40Z</time>
      </trkpt>
      <trkpt lat="47.12909" lon="6.17733">
        <ele>373.565399</ele>
        <time>2020-08-22T08:26:40Z</time>
      </trkpt>
      <trkpt lat="47.12914" lon="6.17729">
        <ele>372.059052</ele>
        <time>2020-08-22T08:26:42Z</time>
      </trkpt>
      <trkpt lat="47.12913" lon="6.17732">
        <ele>372.911957</ele>
        <time>2020-08-22T08:26:42Z</time>
      </trkpt>
      <trkpt lat="47.12918" lon="6.17729">
        <ele>371.802368</ele>
        <time>2020-08-22T08:26:43Z</time>
      </trkpt>
      <trkpt lat="47.12933" lon="6.17736">
        <ele>371.935272</ele>
        <time>2020-08-22T08:26:47Z</time>
      </trkpt>
      <trkpt lat="47.12938" lon="6.17736">
        <ele>371.491028</ele>
        <time>2020-08-22T08:26:48Z</time>
      </trkpt>
      <trkpt lat="47.12925" lon="6.17742">
        <ele>373.826508</ele>
        <time>2020-08-22T08:26:51Z</time>
      </trkpt>
      <trkpt lat="47.12912" lon="6.17756">
        <ele>379.360016</ele>
        <time>2020-08-22T08:26:55Z</time>
      </trkpt>
      <trkpt lat="47.12907" lon="6.17768">
        <ele>384.080353</ele>
        <time>2020-08-22T08:26:57Z</time>
      </trkpt>
      <trkpt lat="47.12896" lon="6.17777">
        <ele>395.740967</ele>
        <time>2020-08-22T08:27:00Z</time>
      </trkpt>
      <trkpt lat="47.12901" lon="6.17782">
        <ele>394.172363</ele>
        <time>2020-08-22T08:27:02Z</time>
      </trkpt>
      <trkpt lat="47.12904" lon="6.17797">
        <ele>400.280243</ele>
        <time>2020-08-22T08:27:04Z</time>
      </trkpt>
      <trkpt lat="47.12925" lon="6.17841">
        <ele>409.395447</ele>
        <time>2020-08-22T08:27:13Z</time>
      </trkpt>
      <trkpt lat="47.12941" lon="6.17862">
        <ele>407.036896</ele>
        <time>2020-08-22T08:27:18Z</time>
      </trkpt>
      <trkpt lat="47.1295" lon="6.17882">
        <ele>411.048706</ele>
        <time>2020-08-22T08:27:22Z</time>
      </trkpt>
      <trkpt lat="47.1295" lon="6.17887">
        <ele>413.547974</ele>
        <time>2020-08-22T08:27:22Z</time>
      </trkpt>
      <trkpt lat="47.12957" lon="6.17898">
        <ele>415.627655</ele>
        <time>2020-08-22T08:27:25Z</time>
      </trkpt>
      <trkpt lat="47.12967" lon="6.17906">
        <ele>414.56131</ele>
        <time>2020-08-22T08:27:27Z</time>
      </trkpt>
      <trkpt lat="47.12978" lon="6.17927">
        <ele>418.812012</ele>
        <time>2020-08-22T08:27:32Z</time>
      </trkpt>
      <trkpt lat="47.1299" lon="6.17942">
        <ele>418.948669</ele>
        <time>2020-08-22T08:27:35Z</time>
      </trkpt>
      <trkpt lat="47.13011" lon="6.1796">
        <ele>415.806824</ele>
        <time>2020-08-22T08:27:41Z</time>
      </trkpt>
      <trkpt lat="47.1301" lon="6.17964">
        <ele>418.254639</ele>
        <time>2020-08-22T08:27:42Z</time>
      </trkpt>
      <trkpt lat="47.13013" lon="6.17975">
        <ele>421.773315</ele>
        <time>2020-08-22T08:27:44Z</time>
      </trkpt>
      <trkpt lat="47.13018" lon="6.17979">
        <ele>420.993683</ele>
        <time>2020-08-22T08:27:45Z</time>
      </trkpt>
      <trkpt lat="47.13034" lon="6.18009">
        <ele>427.771362</ele>
        <time>2020-08-22T08:27:51Z</time>
      </trkpt>
      <trkpt lat="47.13052" lon="6.18036">
        <ele>429.57309</ele>
        <time>2020-08-22T08:27:57Z</time>
      </trkpt>
      <trkpt lat="47.13066" lon="6.18052">
        <ele>428.535278</ele>
        <time>2020-08-22T08:28:01Z</time>
      </trkpt>
      <trkpt lat="47.13074" lon="6.18067">
        <ele>430.76236</ele>
        <time>2020-08-22T08:28:04Z</time>
      </trkpt>
      <trkpt lat="47.13081" lon="6.18092">
        <ele>439.077026</ele>
        <time>2020-08-22T08:28:08Z</time>
      </trkpt>
      <trkpt lat="47.13091" lon="6.18109">
        <ele>442.896606</ele>
        <time>2020-08-22T08:28:12Z</time>
      </trkpt>
      <trkpt lat="47.131" lon="6.18119">
        <ele>444.309906</ele>
        <time>2020-08-22T08:28:15Z</time>
      </trkpt>
      <trkpt lat="47.1312" lon="6.1813">
        <ele>440.359406</ele>
        <time>2020-08-22T08:28:20Z</time>
      </trkpt>
      <trkpt lat="47.13134" lon="6.18146">
        <ele>439.928589</ele>
        <time>2020-08-22T08:28:24Z</time>
      </trkpt>
      <trkpt lat="47.13136" lon="6.18152">
        <ele>441.834991</ele>
        <time>2020-08-22T08:28:25Z</time>
      </trkpt>
      <trkpt lat="47.13147" lon="6.18162">
        <ele>441.044891</ele>
        <time>2020-08-22T08:28:28Z</time>
      </trkpt>
      <trkpt lat="47.13162" lon="6.18184">
        <ele>445.998413</ele>
        <time>2020-08-22T08:28:33Z</time>
      </trkpt>
      <trkpt lat="47.1319" lon="6.18214">
        <ele>440.165955</ele>
        <time>2020-08-22T08:28:41Z</time>
      </trkpt>
      <trkpt lat="47.13205" lon="6.18239">
        <ele>441.089569</ele>
        <time>2020-08-22T08:28:46Z</time>
      </trkpt>
      <trkpt lat="47.13208" lon="6.18254">
        <ele>445.545563</ele>
        <time>2020-08-22T08:28:49Z</time>
      </trkpt>
      <trkpt lat="47.13226" lon="6.18287">
        <ele>442.588593</ele>
        <time>2020-08-22T08:28:55Z</time>
      </trkpt>
      <trkpt lat="47.13229" lon="6.18298">
        <ele>444.321564</ele>
        <time>2020-08-22T08:28:57Z</time>
      </trkpt>
      <trkpt lat="47.13229" lon="6.18322">
        <ele>453.652252</ele>
        <time>2020-08-22T08:29:01Z</time>
      </trkpt>
      <trkpt lat="47.13234" lon="6.18345">
        <ele>456.743439</ele>
        <time>2020-08-22T08:29:05Z</time>
      </trkpt>
      <trkpt lat="47.13241" lon="6.18358">
        <ele>455.496887</ele>
        <time>2020-08-22T08:29:08Z</time>
      </trkpt>
      <trkpt lat="47.13246" lon="6.18378">
        <ele>457.850006</ele>
        <time>2020-08-22T08:29:11Z</time>
      </trkpt>
      <trkpt lat="47.1325" lon="6.1838">
        <ele>455.065247</ele>
        <time>2020-08-22T08:29:12Z</time>
      </trkpt>
      <trkpt lat="47.1325" lon="6.18399">
        <ele>460.5401</ele>
        <time>2020-08-22T08:29:15Z</time>
      </trkpt>
      <trkpt lat="47.13248" lon="6.18402">
        <ele>462.832764</ele>
        <time>2020-08-22T08:29:16Z</time>
      </trkpt>
      <trkpt lat="47.13255" lon="6.18426">
        <ele>464.506683</ele>
        <time>2020-08-22T08:29:20Z</time>
      </trkpt>
      <trkpt lat="47.13263" lon="6.18439">
        <ele>462.806274</ele>
        <time>2020-08-22T08:29:23Z</time>
      </trkpt>
      <trkpt lat="47.1327" lon="6.18444">
        <ele>459.680664</ele>
        <time>2020-08-22T08:29:24Z</time>
      </trkpt>
      <trkpt lat="47.13283" lon="6.18465">
        <ele>458.501465</ele>
        <time>2020-08-22T08:29:29Z</time>
      </trkpt>
      <trkpt lat="47.13283" lon="6.1847">
        <ele>460.408478</ele>
        <time>2020-08-22T08:29:30Z</time>
      </trkpt>
      <trkpt lat="47.13287" lon="6.18473">
        <ele>458.961426</ele>
        <time>2020-08-22T08:29:31Z</time>
      </trkpt>
      <trkpt lat="47.13285" lon="6.18486">
        <ele>464.973114</ele>
        <time>2020-08-22T08:29:33Z</time>
      </trkpt>
      <trkpt lat="47.13292" lon="6.18527">
        <ele>476.723022</ele>
        <time>2020-08-22T08:29:40Z</time>
      </trkpt>
      <trkpt lat="47.13297" lon="6.18588">
        <ele>481.466888</ele>
        <time>2020-08-22T08:29:49Z</time>
      </trkpt>
      <trkpt lat="47.13303" lon="6.18606">
        <ele>478.78125</ele>
        <time>2020-08-22T08:29:53Z</time>
      </trkpt>
      <trkpt lat="47.13302" lon="6.1863">
        <ele>476.321259</ele>
        <time>2020-08-22T08:29:56Z</time>
      </trkpt>
      <trkpt lat="47.13292" lon="6.18648">
        <ele>478.230011</ele>
        <time>2020-08-22T08:30:00Z</time>
      </trkpt>
      <trkpt lat="47.13288" lon="6.18651">
        <ele>479.598755</ele>
        <time>2020-08-22T08:30:01Z</time>
      </trkpt>
      <trkpt lat="47.13281" lon="6.18673">
        <ele>478.200012</ele>
        <time>2020-08-22T08:30:05Z</time>
      </trkpt>
      <trkpt lat="47.13276" lon="6.18701">
        <ele>474.107758</ele>
        <time>2020-08-22T08:30:10Z</time>
      </trkpt>
      <trkpt lat="47.1325" lon="6.18712">
        <ele>488</ele>
        <time>2020-08-22T08:30:16Z</time>
      </trkpt>
      <trkpt lat="47.13234" lon="6.18728">
        <ele>492.307312</ele>
        <time>2020-08-22T08:30:20Z</time>
      </trkpt>
      <trkpt lat="47.13233" lon="6.18731">
        <ele>491.532349</ele>
        <time>2020-08-22T08:30:21Z</time>
      </trkpt>
      <trkpt lat="47.13244" lon="6.18746">
        <ele>477.297363</ele>
        <time>2020-08-22T08:30:24Z</time>
      </trkpt>
      <trkpt lat="47.13236" lon="6.18746">
        <ele>482.15683</ele>
        <time>2020-08-22T08:30:26Z</time>
      </trkpt>
      <trkpt lat="47.13223" lon="6.18725">
        <ele>501.627197</ele>
        <time>2020-08-22T08:30:31Z</time>
      </trkpt>
      <trkpt lat="47.13221" lon="6.18746">
        <ele>491.913696</ele>
        <time>2020-08-22T08:30:34Z</time>
      </trkpt>
      <trkpt lat="47.13216" lon="6.18764">
        <ele>485.407501</ele>
        <time>2020-08-22T08:30:37Z</time>
      </trkpt>
      <trkpt lat="47.13216" lon="6.18759">
        <ele>488.032013</ele>
        <time>2020-08-22T08:30:38Z</time>
      </trkpt>
      <trkpt lat="47.13206" lon="6.18763">
        <ele>491.786499</ele>
        <time>2020-08-22T08:30:40Z</time>
      </trkpt>
      <trkpt lat="47.13195" lon="6.18762">
        <ele>498.891418</ele>
        <time>2020-08-22T08:30:43Z</time>
      </trkpt>
      <trkpt lat="47.13194" lon="6.18767">
        <ele>496.454437</ele>
        <time>2020-08-22T08:30:44Z</time>
      </trkpt>
      <trkpt lat="47.13174" lon="6.18788">
        <ele>494.556549</ele>
        <time>2020-08-22T08:30:50Z</time>
      </trkpt>
      <trkpt lat="47.13176" lon="6.1879">
        <ele>493.871887</ele>
        <time>2020-08-22T08:30:50Z</time>
      </trkpt>
      <trkpt lat="47.13171" lon="6.18796">
        <ele>496.847229</ele>
        <time>2020-08-22T08:30:52Z</time>
      </trkpt>
      <trkpt lat="47.1317" lon="6.18805">
        <ele>498.252563</ele>
        <time>2020-08-22T08:30:53Z</time>
      </trkpt>
      <trkpt lat="47.13155" lon="6.18823">
        <ele>502.525116</ele>
        <time>2020-08-22T08:30:58Z</time>
      </trkpt>
      <trkpt lat="47.13156" lon="6.18851">
        <ele>502.893555</ele>
        <time>2020-08-22T08:31:02Z</time>
      </trkpt>
      <trkpt lat="47.13152" lon="6.18858">
        <ele>503.858124</ele>
        <time>2020-08-22T08:31:04Z</time>
      </trkpt>
      <trkpt lat="47.13154" lon="6.18871">
        <ele>506.782196</ele>
        <time>2020-08-22T08:31:06Z</time>
      </trkpt>
      <trkpt lat="47.13141" lon="6.18893">
        <ele>508.193115</ele>
        <time>2020-08-22T08:31:10Z</time>
      </trkpt>
      <trkpt lat="47.13129" lon="6.1893">
        <ele>516.305908</ele>
        <time>2020-08-22T08:31:17Z</time>
      </trkpt>
      <trkpt lat="47.1312" lon="6.1894">
        <ele>519.041504</ele>
        <time>2020-08-22T08:31:19Z</time>
      </trkpt>
      <trkpt lat="47.13116" lon="6.1894">
        <ele>519.040283</ele>
        <time>2020-08-22T08:31:20Z</time>
      </trkpt>
      <trkpt lat="47.131" lon="6.18955">
        <ele>520.53241</ele>
        <time>2020-08-22T08:31:25Z</time>
      </trkpt>
      <trkpt lat="47.13093" lon="6.18958">
        <ele>520.000732</ele>
        <time>2020-08-22T08:31:27Z</time>
      </trkpt>
      <trkpt lat="47.13084" lon="6.18958">
        <ele>519.943909</ele>
        <time>2020-08-22T08:31:29Z</time>
      </trkpt>
      <trkpt lat="47.13079" lon="6.18962">
        <ele>519.98999</ele>
        <time>2020-08-22T08:31:30Z</time>
      </trkpt>
      <trkpt lat="47.13075" lon="6.18971">
        <ele>519.722778</ele>
        <time>2020-08-22T08:31:32Z</time>
      </trkpt>
      <trkpt lat="47.13078" lon="6.18975">
        <ele>519.875427</ele>
        <time>2020-08-22T08:31:33Z</time>
      </trkpt>
      <trkpt lat="47.13076" lon="6.18983">
        <ele>520.217346</ele>
        <time>2020-08-22T08:31:34Z</time>
      </trkpt>
      <trkpt lat="47.13071" lon="6.18989">
        <ele>520.213623</ele>
        <time>2020-08-22T08:31:35Z</time>
      </trkpt>
      <trkpt lat="47.13065" lon="6.18969">
        <ele>519.227783</ele>
        <time>2020-08-22T08:31:39Z</time>
      </trkpt>
      <trkpt lat="47.1306" lon="6.18971">
        <ele>518.723999</ele>
        <time>2020-08-22T08:31:40Z</time>
      </trkpt>
      <trkpt lat="47.13052" lon="6.18958">
        <ele>520.0625</ele>
        <time>2020-08-22T08:31:43Z</time>
      </trkpt>
      <trkpt lat="47.13046" lon="6.18953">
        <ele>521.08551</ele>
        <time>2020-08-22T08:31:45Z</time>
      </trkpt>
      <trkpt lat="47.13037" lon="6.18956">
        <ele>522.686523</ele>
        <time>2020-08-22T08:31:47Z</time>
      </trkpt>
      <trkpt lat="47.13016" lon="6.18998">
        <ele>522.902832</ele>
        <time>2020-08-22T08:31:55Z</time>
      </trkpt>
      <trkpt lat="47.12994" lon="6.19014">
        <ele>523.916382</ele>
        <time>2020-08-22T08:32:01Z</time>
      </trkpt>
      <trkpt lat="47.12987" lon="6.19009">
        <ele>526.172974</ele>
        <time>2020-08-22T08:32:03Z</time>
      </trkpt>
      <trkpt lat="47.12985" lon="6.18998">
        <ele>528.560974</ele>
        <time>2020-08-22T08:32:04Z</time>
      </trkpt>
      <trkpt lat="47.13005" lon="6.18976">
        <ele>528.105896</ele>
        <time>2020-08-22T08:32:10Z</time>
      </trkpt>
      <trkpt lat="47.13012" lon="6.18959">
        <ele>528.55957</ele>
        <time>2020-08-22T08:32:13Z</time>
      </trkpt>
      <trkpt lat="47.13014" lon="6.18944">
        <ele>530.059631</ele>
        <time>2020-08-22T08:32:16Z</time>
      </trkpt>
      <trkpt lat="47.13011" lon="6.18928">
        <ele>532.82666</ele>
        <time>2020-08-22T08:32:18Z</time>
      </trkpt>
      <trkpt lat="47.13005" lon="6.18915">
        <ele>535.566895</ele>
        <time>2020-08-22T08:32:21Z</time>
      </trkpt>
      <trkpt lat="47.13004" lon="6.18901">
        <ele>536.817566</ele>
        <time>2020-08-22T08:32:23Z</time>
      </trkpt>
      <trkpt lat="47.13014" lon="6.18853">
        <ele>535.380127</ele>
        <time>2020-08-22T08:32:31Z</time>
      </trkpt>
      <trkpt lat="47.13013" lon="6.18817">
        <ele>534.778076</ele>
        <time>2020-08-22T08:32:37Z</time>
      </trkpt>
      <trkpt lat="47.13011" lon="6.18792">
        <ele>534.209534</ele>
        <time>2020-08-22T08:32:41Z</time>
      </trkpt>
      <trkpt lat="47.13" lon="6.18764">
        <ele>534.349976</ele>
        <time>2020-08-22T08:32:46Z</time>
      </trkpt>
      <trkpt lat="47.12952" lon="6.18677">
        <ele>537.603577</ele>
        <time>2020-08-22T08:33:04Z</time>
      </trkpt>
      <trkpt lat="47.12943" lon="6.18641">
        <ele>538.973633</ele>
        <time>2020-08-22T08:33:10Z</time>
      </trkpt>
      <trkpt lat="47.12941" lon="6.18622">
        <ele>539.500793</ele>
        <time>2020-08-22T08:33:13Z</time>
      </trkpt>
      <trkpt lat="47.12935" lon="6.18604">
        <ele>540.094604</ele>
        <time>2020-08-22T08:33:16Z</time>
      </trkpt>
      <trkpt lat="47.12915" lon="6.18579">
        <ele>540.880981</ele>
        <time>2020-08-22T08:33:22Z</time>
      </trkpt>
      <trkpt lat="47.12888" lon="6.18559">
        <ele>540.648132</ele>
        <time>2020-08-22T08:33:29Z</time>
      </trkpt>
      <trkpt lat="47.12847" lon="6.18539">
        <ele>540.875549</ele>
        <time>2020-08-22T08:33:39Z</time>
      </trkpt>
      <trkpt lat="47.12822" lon="6.18525">
        <ele>540.733093</ele>
        <time>2020-08-22T08:33:46Z</time>
      </trkpt>
      <trkpt lat="47.12814" lon="6.18518">
        <ele>540.507507</ele>
        <time>2020-08-22T08:33:48Z</time>
      </trkpt>
      <trkpt lat="47.12811" lon="6.18517">
        <ele>540.466003</ele>
        <time>2020-08-22T08:33:49Z</time>
      </trkpt>
      <trkpt lat="47.12799" lon="6.18531">
        <ele>540.651489</ele>
        <time>2020-08-22T08:33:52Z</time>
      </trkpt>
      <trkpt lat="47.12743" lon="6.18623">
        <ele>540.034912</ele>
        <time>2020-08-22T08:34:12Z</time>
      </trkpt>
      <trkpt lat="47.12634" lon="6.18829">
        <ele>550.379333</ele>
        <time>2020-08-22T08:34:53Z</time>
      </trkpt>
      <trkpt lat="47.12619" lon="6.18844">
        <ele>551.13562</ele>
        <time>2020-08-22T08:34:57Z</time>
      </trkpt>
      <trkpt lat="47.12602" lon="6.18882">
        <ele>552.9375</ele>
        <time>2020-08-22T08:35:05Z</time>
      </trkpt>
      <trkpt lat="47.12515" lon="6.19038">
        <ele>560.681763</ele>
        <time>2020-08-22T08:35:37Z</time>
      </trkpt>
      <trkpt lat="47.12398" lon="6.19258">
        <ele>571.340027</ele>
        <time>2020-08-22T08:36:21Z</time>
      </trkpt>
      <trkpt lat="47.12282" lon="6.19545">
        <ele>564.618774</ele>
        <time>2020-08-22T08:37:14Z</time>
      </trkpt>
      <trkpt lat="47.12257" lon="6.19623">
        <ele>566.41626</ele>
        <time>2020-08-22T08:37:28Z</time>
      </trkpt>
      <trkpt lat="47.12248" lon="6.19677">
        <ele>565.133423</ele>
        <time>2020-08-22T08:37:37Z</time>
      </trkpt>
      <trkpt lat="47.1225" lon="6.19716">
        <ele>563.47998</ele>
        <time>2020-08-22T08:37:43Z</time>
      </trkpt>
      <trkpt lat="47.12246" lon="6.19759">
        <ele>563.700012</ele>
        <time>2020-08-22T08:37:50Z</time>
      </trkpt>
      <trkpt lat="47.12233" lon="6.19835">
        <ele>568.516968</ele>
        <time>2020-08-22T08:38:02Z</time>
      </trkpt>
      <trkpt lat="47.12222" lon="6.19865">
        <ele>570.196167</ele>
        <time>2020-08-22T08:38:08Z</time>
      </trkpt>
      <trkpt lat="47.12191" lon="6.19907">
        <ele>572.35498</ele>
        <time>2020-08-22T08:38:17Z</time>
      </trkpt>
      <trkpt lat="47.12175" lon="6.19948">
        <ele>573.318726</ele>
        <time>2020-08-22T08:38:25Z</time>
      </trkpt>
      <trkpt lat="47.12153" lon="6.19953">
        <ele>573.903748</ele>
        <time>2020-08-22T08:42:10Z</time>
      </trkpt>
      <trkpt lat="47.1212" lon="6.19963">
        <ele>574.816284</ele>
        <time>2020-08-22T08:42:18Z</time>
      </trkpt>
      <trkpt lat="47.12082" lon="6.19969">
        <ele>576.48584</ele>
        <time>2020-08-22T08:42:27Z</time>
      </trkpt>
      <trkpt lat="47.12047" lon="6.19967">
        <ele>577.953491</ele>
        <time>2020-08-22T08:42:35Z</time>
      </trkpt>
      <trkpt lat="47.12012" lon="6.19961">
        <ele>579.639587</ele>
        <time>2020-08-22T08:42:43Z</time>
      </trkpt>
      <trkpt lat="47.11982" lon="6.19944">
        <ele>581.700012</ele>
        <time>2020-08-22T08:42:51Z</time>
      </trkpt>
      <trkpt lat="47.11926" lon="6.19902">
        <ele>585.071228</ele>
        <time>2020-08-22T08:43:05Z</time>
      </trkpt>
      <trkpt lat="47.11869" lon="6.19852">
        <ele>587.54248</ele>
        <time>2020-08-22T08:43:21Z</time>
      </trkpt>
      <trkpt lat="47.1186" lon="6.19841">
        <ele>587.806274</ele>
        <time>2020-08-22T08:43:24Z</time>
      </trkpt>
      <trkpt lat="47.1182" lon="6.19745">
        <ele>587.320007</ele>
        <time>2020-08-22T08:43:42Z</time>
      </trkpt>
      <trkpt lat="47.11795" lon="6.19702">
        <ele>587.859985</ele>
        <time>2020-08-22T08:43:51Z</time>
      </trkpt>
      <trkpt lat="47.11742" lon="6.19616">
        <ele>589.432251</ele>
        <time>2020-08-22T08:44:09Z</time>
      </trkpt>
      <trkpt lat="47.11727" lon="6.19601">
        <ele>590.448059</ele>
        <time>2020-08-22T08:44:13Z</time>
      </trkpt>
      <trkpt lat="47.11695" lon="6.19588">
        <ele>587.961121</ele>
        <time>2020-08-22T08:44:21Z</time>
      </trkpt>
      <trkpt lat="47.11684" lon="6.19576">
        <ele>587.337036</ele>
        <time>2020-08-22T08:44:24Z</time>
      </trkpt>
      <trkpt lat="47.11672" lon="6.19525">
        <ele>588.708008</ele>
        <time>2020-08-22T08:44:33Z</time>
      </trkpt>
      <trkpt lat="47.11651" lon="6.19491">
        <ele>585.293335</ele>
        <time>2020-08-22T08:44:40Z</time>
      </trkpt>
      <trkpt lat="47.116" lon="6.19454">
        <ele>579.820313</ele>
        <time>2020-08-22T08:44:53Z</time>
      </trkpt>
      <trkpt lat="47.11557" lon="6.19444">
        <ele>573.302612</ele>
        <time>2020-08-22T08:45:04Z</time>
      </trkpt>
      <trkpt lat="47.11518" lon="6.19431">
        <ele>569.379456</ele>
        <time>2020-08-22T08:45:13Z</time>
      </trkpt>
      <trkpt lat="47.11487" lon="6.19406">
        <ele>567.790588</ele>
        <time>2020-08-22T08:45:21Z</time>
      </trkpt>
      <trkpt lat="47.11449" lon="6.19357">
        <ele>558.019714</ele>
        <time>2020-08-22T08:45:33Z</time>
      </trkpt>
      <trkpt lat="47.1143" lon="6.1932">
        <ele>552.507813</ele>
        <time>2020-08-22T08:45:40Z</time>
      </trkpt>
      <trkpt lat="47.11418" lon="6.19276">
        <ele>547.960144</ele>
        <time>2020-08-22T08:45:48Z</time>
      </trkpt>
      <trkpt lat="47.11415" lon="6.19253">
        <ele>546.911194</ele>
        <time>2020-08-22T08:45:52Z</time>
      </trkpt>
      <trkpt lat="47.11415" lon="6.19203">
        <ele>546.778992</ele>
        <time>2020-08-22T08:45:59Z</time>
      </trkpt>
      <trkpt lat="47.11422" lon="6.1914">
        <ele>551.79248</ele>
        <time>2020-08-22T08:46:10Z</time>
      </trkpt>
      <trkpt lat="47.11423" lon="6.19107">
        <ele>554.02594</ele>
        <time>2020-08-22T08:46:15Z</time>
      </trkpt>
      <trkpt lat="47.1141" lon="6.1906">
        <ele>551.646851</ele>
        <time>2020-08-22T08:46:23Z</time>
      </trkpt>
      <trkpt lat="47.11403" lon="6.1904">
        <ele>553.046631</ele>
        <time>2020-08-22T08:46:27Z</time>
      </trkpt>
      <trkpt lat="47.11383" lon="6.19008">
        <ele>553.567993</ele>
        <time>2020-08-22T08:46:33Z</time>
      </trkpt>
      <trkpt lat="47.11372" lon="6.18994">
        <ele>553.925354</ele>
        <time>2020-08-22T08:46:37Z</time>
      </trkpt>
      <trkpt lat="47.11352" lon="6.18979">
        <ele>551.465454</ele>
        <time>2020-08-22T08:46:42Z</time>
      </trkpt>
      <trkpt lat="47.11333" lon="6.18958">
        <ele>549.451416</ele>
        <time>2020-08-22T08:46:48Z</time>
      </trkpt>
      <trkpt lat="47.11322" lon="6.18941">
        <ele>548.962097</ele>
        <time>2020-08-22T08:46:51Z</time>
      </trkpt>
      <trkpt lat="47.11306" lon="6.18887">
        <ele>550.796875</ele>
        <time>2020-08-22T08:47:01Z</time>
      </trkpt>
      <trkpt lat="47.11303" lon="6.18868">
        <ele>551.697876</ele>
        <time>2020-08-22T08:47:04Z</time>
      </trkpt>
      <trkpt lat="47.11301" lon="6.1887">
        <ele>550.39325</ele>
        <time>2020-08-22T08:47:04Z</time>
      </trkpt>
      <trkpt lat="47.11298" lon="6.18857">
        <ele>550.358765</ele>
        <time>2020-08-22T08:47:07Z</time>
      </trkpt>
      <trkpt lat="47.11288" lon="6.1885">
        <ele>546.411865</ele>
        <time>2020-08-22T08:47:09Z</time>
      </trkpt>
      <trkpt lat="47.11279" lon="6.18834">
        <ele>544.585876</ele>
        <time>2020-08-22T08:47:12Z</time>
      </trkpt>
      <trkpt lat="47.11277" lon="6.18812">
        <ele>546.655273</ele>
        <time>2020-08-22T08:47:16Z</time>
      </trkpt>
      <trkpt lat="47.11259" lon="6.18771">
        <ele>543.151123</ele>
        <time>2020-08-22T08:47:24Z</time>
      </trkpt>
      <trkpt lat="47.11249" lon="6.18726">
        <ele>544.452698</ele>
        <time>2020-08-22T08:47:31Z</time>
      </trkpt>
      <trkpt lat="47.11235" lon="6.187">
        <ele>542.112915</ele>
        <time>2020-08-22T08:47:37Z</time>
      </trkpt>
      <trkpt lat="47.11229" lon="6.18683">
        <ele>541.953613</ele>
        <time>2020-08-22T08:47:40Z</time>
      </trkpt>
      <trkpt lat="47.11217" lon="6.18631">
        <ele>544.396118</ele>
        <time>2020-08-22T08:47:48Z</time>
      </trkpt>
      <trkpt lat="47.11215" lon="6.18629">
        <ele>543.797302</ele>
        <time>2020-08-22T08:47:49Z</time>
      </trkpt>
      <trkpt lat="47.11212" lon="6.1863">
        <ele>542.117981</ele>
        <time>2020-08-22T08:47:50Z</time>
      </trkpt>
      <trkpt lat="47.11207" lon="6.1862">
        <ele>541.614746</ele>
        <time>2020-08-22T08:47:52Z</time>
      </trkpt>
      <trkpt lat="47.112" lon="6.18613">
        <ele>539.660461</ele>
        <time>2020-08-22T08:47:54Z</time>
      </trkpt>
      <trkpt lat="47.11193" lon="6.18614">
        <ele>536.382019</ele>
        <time>2020-08-22T08:47:55Z</time>
      </trkpt>
      <trkpt lat="47.11184" lon="6.18606">
        <ele>533.662109</ele>
        <time>2020-08-22T08:47:58Z</time>
      </trkpt>
      <trkpt lat="47.11165" lon="6.18575">
        <ele>529.912476</ele>
        <time>2020-08-22T08:48:04Z</time>
      </trkpt>
      <trkpt lat="47.11158" lon="6.18544">
        <ele>533.25</ele>
        <time>2020-08-22T08:48:09Z</time>
      </trkpt>
      <trkpt lat="47.11146" lon="6.18531">
        <ele>530.506287</ele>
        <time>2020-08-22T08:48:13Z</time>
      </trkpt>
      <trkpt lat="47.11119" lon="6.18493">
        <ele>527.512024</ele>
        <time>2020-08-22T08:48:22Z</time>
      </trkpt>
      <trkpt lat="47.11052" lon="6.18415">
        <ele>523.776123</ele>
        <time>2020-08-22T08:48:42Z</time>
      </trkpt>
      <trkpt lat="47.1104" lon="6.18388">
        <ele>525.936401</ele>
        <time>2020-08-22T08:48:47Z</time>
      </trkpt>
      <trkpt lat="47.11016" lon="6.18346">
        <ele>527.447021</ele>
        <time>2020-08-22T08:48:55Z</time>
      </trkpt>
      <trkpt lat="47.10997" lon="6.18325">
        <ele>526.357727</ele>
        <time>2020-08-22T08:49:01Z</time>
      </trkpt>
      <trkpt lat="47.1097" lon="6.18301">
        <ele>526.005554</ele>
        <time>2020-08-22T08:49:08Z</time>
      </trkpt>
      <trkpt lat="47.10954" lon="6.18275">
        <ele>528.87561</ele>
        <time>2020-08-22T08:49:14Z</time>
      </trkpt>
      <trkpt lat="47.10917" lon="6.18225">
        <ele>529.043701</ele>
        <time>2020-08-22T08:49:26Z</time>
      </trkpt>
      <trkpt lat="47.10905" lon="6.18213">
        <ele>527.755554</ele>
        <time>2020-08-22T08:49:29Z</time>
      </trkpt>
      <trkpt lat="47.10902" lon="6.18204">
        <ele>528.648682</ele>
        <time>2020-08-22T08:49:31Z</time>
      </trkpt>
      <trkpt lat="47.10903" lon="6.182">
        <ele>529.836914</ele>
        <time>2020-08-22T08:49:31Z</time>
      </trkpt>
      <trkpt lat="47.10895" lon="6.18185">
        <ele>530.186218</ele>
        <time>2020-08-22T08:49:34Z</time>
      </trkpt>
      <trkpt lat="47.10875" lon="6.18163">
        <ele>527.254395</ele>
        <time>2020-08-22T08:49:40Z</time>
      </trkpt>
      <trkpt lat="47.10831" lon="6.18102">
        <ele>525.451416</ele>
        <time>2020-08-22T08:49:54Z</time>
      </trkpt>
      <trkpt lat="47.10791" lon="6.18056">
        <ele>525.616577</ele>
        <time>2020-08-22T08:50:06Z</time>
      </trkpt>
      <trkpt lat="47.10769" lon="6.18036">
        <ele>526.989319</ele>
        <time>2020-08-22T08:50:12Z</time>
      </trkpt>
      <trkpt lat="47.10733" lon="6.18023">
        <ele>527.014709</ele>
        <time>2020-08-22T08:50:21Z</time>
      </trkpt>
      <trkpt lat="47.10703" lon="6.1802">
        <ele>528.066956</ele>
        <time>2020-08-22T08:50:28Z</time>
      </trkpt>
      <trkpt lat="47.10657" lon="6.18033">
        <ele>527.394897</ele>
        <time>2020-08-22T08:50:39Z</time>
      </trkpt>
      <trkpt lat="47.10637" lon="6.18034">
        <ele>527.582397</ele>
        <time>2020-08-22T08:50:44Z</time>
      </trkpt>
      <trkpt lat="47.10603" lon="6.18023">
        <ele>527.627991</ele>
        <time>2020-08-22T08:50:52Z</time>
      </trkpt>
      <trkpt lat="47.10575" lon="6.18011">
        <ele>526.263733</ele>
        <time>2020-08-22T08:50:58Z</time>
      </trkpt>
      <trkpt lat="47.10545" lon="6.17992">
        <ele>525.060852</ele>
        <time>2020-08-22T08:51:06Z</time>
      </trkpt>
      <trkpt lat="47.10511" lon="6.17958">
        <ele>524.363525</ele>
        <time>2020-08-22T08:51:16Z</time>
      </trkpt>
      <trkpt lat="47.10494" lon="6.17937">
        <ele>524.441467</ele>
        <time>2020-08-22T08:51:21Z</time>
      </trkpt>
      <trkpt lat="47.10426" lon="6.17838">
        <ele>523.437622</ele>
        <time>2020-08-22T08:51:43Z</time>
      </trkpt>
      <trkpt lat="47.10379" lon="6.17749">
        <ele>520.714539</ele>
        <time>2020-08-22T08:52:01Z</time>
      </trkpt>
      <trkpt lat="47.1035" lon="6.17708">
        <ele>518.169983</ele>
        <time>2020-08-22T08:52:11Z</time>
      </trkpt>
      <trkpt lat="47.10337" lon="6.17657">
        <ele>516.317993</ele>
        <time>2020-08-22T08:52:19Z</time>
      </trkpt>
      <trkpt lat="47.10332" lon="6.17652">
        <ele>515.44812</ele>
        <time>2020-08-22T08:52:21Z</time>
      </trkpt>
      <trkpt lat="47.10319" lon="6.17653">
        <ele>514.538025</ele>
        <time>2020-08-22T08:52:24Z</time>
      </trkpt>
      <trkpt lat="47.10291" lon="6.17643">
        <ele>512.397522</ele>
        <time>2020-08-22T08:52:30Z</time>
      </trkpt>
      <trkpt lat="47.10273" lon="6.17626">
        <ele>512.126648</ele>
        <time>2020-08-22T08:52:35Z</time>
      </trkpt>
      <trkpt lat="47.10268" lon="6.17617">
        <ele>512.176514</ele>
        <time>2020-08-22T08:52:37Z</time>
      </trkpt>
      <trkpt lat="47.10266" lon="6.17577">
        <ele>510.929199</ele>
        <time>2020-08-22T08:52:44Z</time>
      </trkpt>
      <trkpt lat="47.10247" lon="6.17518">
        <ele>506.268036</ele>
        <time>2020-08-22T08:52:54Z</time>
      </trkpt>
      <trkpt lat="47.10228" lon="6.17466">
        <ele>502.358734</ele>
        <time>2020-08-22T08:53:03Z</time>
      </trkpt>
      <trkpt lat="47.10209" lon="6.17424">
        <ele>500.519989</ele>
        <time>2020-08-22T08:53:11Z</time>
      </trkpt>
      <trkpt lat="47.10183" lon="6.17378">
        <ele>498.798248</ele>
        <time>2020-08-22T08:53:21Z</time>
      </trkpt>
      <trkpt lat="47.10152" lon="6.17332">
        <ele>497.380005</ele>
        <time>2020-08-22T08:53:31Z</time>
      </trkpt>
      <trkpt lat="47.10045" lon="6.17211">
        <ele>487.792816</ele>
        <time>2020-08-22T08:54:03Z</time>
      </trkpt>
      <trkpt lat="47.10025" lon="6.17196">
        <ele>481.574249</ele>
        <time>2020-08-22T08:54:08Z</time>
      </trkpt>
      <trkpt lat="47.10003" lon="6.17189">
        <ele>475.339508</ele>
        <time>2020-08-22T08:54:13Z</time>
      </trkpt>
      <trkpt lat="47.1" lon="6.17179">
        <ele>471.425873</ele>
        <time>2020-08-22T08:54:15Z</time>
      </trkpt>
      <trkpt lat="47.10008" lon="6.17173">
        <ele>471.218475</ele>
        <time>2020-08-22T08:54:17Z</time>
      </trkpt>
      <trkpt lat="47.1" lon="6.17162">
        <ele>463.956696</ele>
        <time>2020-08-22T08:54:20Z</time>
      </trkpt>
      <trkpt lat="47.09998" lon="6.17165">
        <ele>464.718811</ele>
        <time>2020-08-22T08:54:20Z</time>
      </trkpt>
      <trkpt lat="47.10005" lon="6.17164">
        <ele>466.121094</ele>
        <time>2020-08-22T08:54:22Z</time>
      </trkpt>
      <trkpt lat="47.1001" lon="6.17171">
        <ele>470.709991</ele>
        <time>2020-08-22T08:54:24Z</time>
      </trkpt>
      <trkpt lat="47.10009" lon="6.17176">
        <ele>472.507385</ele>
        <time>2020-08-22T08:54:24Z</time>
      </trkpt>
      <trkpt lat="47.10015" lon="6.17176">
        <ele>473.964844</ele>
        <time>2020-08-22T08:54:26Z</time>
      </trkpt>
      <trkpt lat="47.10037" lon="6.17192">
        <ele>482.933746</ele>
        <time>2020-08-22T08:54:31Z</time>
      </trkpt>
      <trkpt lat="47.10059" lon="6.17203">
        <ele>485.523804</ele>
        <time>2020-08-22T08:54:37Z</time>
      </trkpt>
      <trkpt lat="47.1011" lon="6.17222">
        <ele>485.66687</ele>
        <time>2020-08-22T08:54:49Z</time>
      </trkpt>
      <trkpt lat="47.10139" lon="6.17229">
        <ele>483.830505</ele>
        <time>2020-08-22T08:54:56Z</time>
      </trkpt>
      <trkpt lat="47.10176" lon="6.17249">
        <ele>483.305542</ele>
        <time>2020-08-22T08:55:05Z</time>
      </trkpt>
      <trkpt lat="47.10198" lon="6.17266">
        <ele>480.723541</ele>
        <time>2020-08-22T08:55:11Z</time>
      </trkpt>
      <trkpt lat="47.10225" lon="6.17292">
        <ele>479.874054</ele>
        <time>2020-08-22T08:55:19Z</time>
      </trkpt>
      <trkpt lat="47.10253" lon="6.17328">
        <ele>482.019714</ele>
        <time>2020-08-22T08:55:27Z</time>
      </trkpt>
      <trkpt lat="47.10266" lon="6.17333">
        <ele>481.560974</ele>
        <time>2020-08-22T08:55:30Z</time>
      </trkpt>
      <trkpt lat="47.10276" lon="6.17315">
        <ele>481.737701</ele>
        <time>2020-08-22T08:55:34Z</time>
      </trkpt>
      <trkpt lat="47.10297" lon="6.17249">
        <ele>478.337585</ele>
        <time>2020-08-22T08:55:46Z</time>
      </trkpt>
      <trkpt lat="47.10321" lon="6.17195">
        <ele>477.010925</ele>
        <time>2020-08-22T08:55:56Z</time>
      </trkpt>
      <trkpt lat="47.10346" lon="6.17128">
        <ele>464.866241</ele>
        <time>2020-08-22T08:56:08Z</time>
      </trkpt>
      <trkpt lat="47.10372" lon="6.17105">
        <ele>459.5401</ele>
        <time>2020-08-22T08:56:15Z</time>
      </trkpt>
      <trkpt lat="47.10403" lon="6.17098">
        <ele>455.125885</ele>
        <time>2020-08-22T08:56:23Z</time>
      </trkpt>
      <trkpt lat="47.10426" lon="6.1711">
        <ele>461.356201</ele>
        <time>2020-08-22T08:56:28Z</time>
      </trkpt>
      <trkpt lat="47.1043" lon="6.17122">
        <ele>464.6315</ele>
        <time>2020-08-22T08:56:30Z</time>
      </trkpt>
      <trkpt lat="47.10443" lon="6.17109">
        <ele>463.631958</ele>
        <time>2020-08-22T08:56:34Z</time>
      </trkpt>
      <trkpt lat="47.10448" lon="6.17087">
        <ele>460.93924</ele>
        <time>2020-08-22T08:56:38Z</time>
      </trkpt>
      <trkpt lat="47.10451" lon="6.17031">
        <ele>451.735992</ele>
        <time>2020-08-22T08:56:47Z</time>
      </trkpt>
      <trkpt lat="47.10449" lon="6.16993">
        <ele>445.089905</ele>
        <time>2020-08-22T08:56:53Z</time>
      </trkpt>
      <trkpt lat="47.1044" lon="6.16925">
        <ele>434.097839</ele>
        <time>2020-08-22T08:57:04Z</time>
      </trkpt>
      <trkpt lat="47.1044" lon="6.16868">
        <ele>424.782501</ele>
        <time>2020-08-22T08:57:13Z</time>
      </trkpt>
      <trkpt lat="47.10459" lon="6.16738">
        <ele>406.214111</ele>
        <time>2020-08-22T08:57:34Z</time>
      </trkpt>
      <trkpt lat="47.10464" lon="6.16732">
        <ele>406.876251</ele>
        <time>2020-08-22T08:57:35Z</time>
      </trkpt>
      <trkpt lat="47.10462" lon="6.16732">
        <ele>406.107391</ele>
        <time>2020-08-22T08:57:36Z</time>
      </trkpt>
      <trkpt lat="47.10477" lon="6.16649">
        <ele>396.785706</ele>
        <time>2020-08-22T08:57:50Z</time>
      </trkpt>
      <trkpt lat="47.10479" lon="6.1656">
        <ele>380.895905</ele>
        <time>2020-08-22T08:58:04Z</time>
      </trkpt>
      <trkpt lat="47.1049" lon="6.16513">
        <ele>377.508514</ele>
        <time>2020-08-22T08:58:12Z</time>
      </trkpt>
      <trkpt lat="47.105" lon="6.16401">
        <ele>364.871185</ele>
        <time>2020-08-22T08:58:30Z</time>
      </trkpt>
      <trkpt lat="47.10497" lon="6.16382">
        <ele>362.062408</ele>
        <time>2020-08-22T08:58:33Z</time>
      </trkpt>
      <trkpt lat="47.10495" lon="6.16381">
        <ele>361.411041</ele>
        <time>2020-08-22T08:58:33Z</time>
      </trkpt>
      <trkpt lat="47.10491" lon="6.16386">
        <ele>360.752502</ele>
        <time>2020-08-22T08:58:34Z</time>
      </trkpt>
      <trkpt lat="47.10493" lon="6.16384">
        <ele>361.097809</ele>
        <time>2020-08-22T08:58:35Z</time>
      </trkpt>
      <trkpt lat="47.10492" lon="6.16282">
        <ele>352.571899</ele>
        <time>2020-08-22T08:58:51Z</time>
      </trkpt>
      <trkpt lat="47.10499" lon="6.16244">
        <ele>352.320007</ele>
        <time>2020-08-22T08:58:57Z</time>
      </trkpt>
      <trkpt lat="47.10481" lon="6.16156">
        <ele>342.579742</ele>
        <time>2020-08-22T08:59:12Z</time>
      </trkpt>
      <trkpt lat="47.10487" lon="6.16112">
        <ele>340.740753</ele>
        <time>2020-08-22T08:59:19Z</time>
      </trkpt>
      <trkpt lat="47.10509" lon="6.16034">
        <ele>341.111389</ele>
        <time>2020-08-22T08:59:33Z</time>
      </trkpt>
      <trkpt lat="47.10548" lon="6.15917">
        <ele>337.540009</ele>
        <time>2020-08-22T08:59:53Z</time>
      </trkpt>
      <trkpt lat="47.10553" lon="6.1588">
        <ele>335.206635</ele>
        <time>2020-08-22T08:59:59Z</time>
      </trkpt>
      <trkpt lat="47.10551" lon="6.15864">
        <ele>334.328918</ele>
        <time>2020-08-22T09:00:02Z</time>
      </trkpt>
      <trkpt lat="47.10541" lon="6.15854">
        <ele>333.084259</ele>
        <time>2020-08-22T09:00:05Z</time>
      </trkpt>
      <trkpt lat="47.10504" lon="6.15834">
        <ele>331.30072</ele>
        <time>2020-08-22T09:00:14Z</time>
      </trkpt>
      <trkpt lat="47.10466" lon="6.15768">
        <ele>331.952484</ele>
        <time>2020-08-22T09:00:28Z</time>
      </trkpt>
      <trkpt lat="47.10459" lon="6.15699">
        <ele>337.090149</ele>
        <time>2020-08-22T09:00:39Z</time>
      </trkpt>
      <trkpt lat="47.10453" lon="6.15665">
        <ele>339.390015</ele>
        <time>2020-08-22T09:00:44Z</time>
      </trkpt>
      <trkpt lat="47.10437" lon="6.15641">
        <ele>340.399994</ele>
        <time>2020-08-22T09:00:50Z</time>
      </trkpt>
      <trkpt lat="47.10426" lon="6.15644">
        <ele>339.929993</ele>
        <time>2020-08-22T09:00:52Z</time>
      </trkpt>
      <trkpt lat="47.10417" lon="6.15662">
        <ele>338.610016</ele>
        <time>2020-08-22T09:00:56Z</time>
      </trkpt>
      <trkpt lat="47.10408" lon="6.15705">
        <ele>334.897736</ele>
        <time>2020-08-22T09:01:03Z</time>
      </trkpt>
      <trkpt lat="47.10403" lon="6.15768">
        <ele>330.556488</ele>
        <time>2020-08-22T09:01:13Z</time>
      </trkpt>
      <trkpt lat="47.10393" lon="6.15823">
        <ele>332.754547</ele>
        <time>2020-08-22T09:01:22Z</time>
      </trkpt>
      <trkpt lat="47.10369" lon="6.15909">
        <ele>336.403748</ele>
        <time>2020-08-22T09:01:37Z</time>
      </trkpt>
      <trkpt lat="47.10347" lon="6.15971">
        <ele>336.171997</ele>
        <time>2020-08-22T09:01:48Z</time>
      </trkpt>
      <trkpt lat="47.10336" lon="6.15993">
        <ele>335.818542</ele>
        <time>2020-08-22T09:01:52Z</time>
      </trkpt>
      <trkpt lat="47.10303" lon="6.16043">
        <ele>336.043213</ele>
        <time>2020-08-22T09:02:03Z</time>
      </trkpt>
      <trkpt lat="47.10284" lon="6.16061">
        <ele>336.221863</ele>
        <time>2020-08-22T09:02:09Z</time>
      </trkpt>
      <trkpt lat="47.10247" lon="6.16063">
        <ele>337.40625</ele>
        <time>2020-08-22T09:02:17Z</time>
      </trkpt>
      <trkpt lat="47.10247" lon="6.16086">
        <ele>336.605713</ele>
        <time>2020-08-22T09:02:21Z</time>
      </trkpt>
      <trkpt lat="47.10241" lon="6.16111">
        <ele>335.750702</ele>
        <time>2020-08-22T09:02:25Z</time>
      </trkpt>
      <trkpt lat="47.1018" lon="6.16174">
        <ele>336.77124</ele>
        <time>2020-08-22T09:02:43Z</time>
      </trkpt>
      <trkpt lat="47.10178" lon="6.16187">
        <ele>336.641235</ele>
        <time>2020-08-22T09:02:45Z</time>
      </trkpt>
      <trkpt lat="47.10179" lon="6.1622">
        <ele>335.684998</ele>
        <time>2020-08-22T09:02:50Z</time>
      </trkpt>
      <trkpt lat="47.1017" lon="6.16244">
        <ele>335.307495</ele>
        <time>2020-08-22T09:02:54Z</time>
      </trkpt>
      <trkpt lat="47.10156" lon="6.16255">
        <ele>335.357513</ele>
        <time>2020-08-22T09:02:58Z</time>
      </trkpt>
      <trkpt lat="47.10118" lon="6.16258">
        <ele>336.029999</ele>
        <time>2020-08-22T09:03:07Z</time>
      </trkpt>
      <trkpt lat="47.10105" lon="6.16269">
        <ele>335.94751</ele>
        <time>2020-08-22T09:03:10Z</time>
      </trkpt>
      <trkpt lat="47.10076" lon="6.16284">
        <ele>336.059998</ele>
        <time>2020-08-22T09:03:18Z</time>
      </trkpt>
      <trkpt lat="47.10011" lon="6.1634">
        <ele>335.627502</ele>
        <time>2020-08-22T09:03:35Z</time>
      </trkpt>
      <trkpt lat="47.09785" lon="6.16575">
        <ele>336.88681</ele>
        <time>2020-08-22T09:04:40Z</time>
      </trkpt>
      <trkpt lat="47.09549" lon="6.16809">
        <ele>339.007324</ele>
        <time>2020-08-22T09:05:46Z</time>
      </trkpt>
      <trkpt lat="47.09474" lon="6.16889">
        <ele>338</ele>
        <time>2020-08-22T09:06:08Z</time>
      </trkpt>
      <trkpt lat="47.09455" lon="6.16896">
        <ele>338</ele>
        <time>2020-08-22T09:06:13Z</time>
      </trkpt>
      <trkpt lat="47.09451" lon="6.16895">
        <ele>338</ele>
        <time>2020-08-22T09:06:14Z</time>
      </trkpt>
      <trkpt lat="47.09417" lon="6.16865">
        <ele>338.042938</ele>
        <time>2020-08-22T09:06:23Z</time>
      </trkpt>
      <trkpt lat="47.09361" lon="6.168">
        <ele>340.359985</ele>
        <time>2020-08-22T09:06:39Z</time>
      </trkpt>
      <trkpt lat="47.09355" lon="6.168">
        <ele>340.480011</ele>
        <time>2020-08-22T09:06:41Z</time>
      </trkpt>
      <trkpt lat="47.09341" lon="6.16823">
        <ele>340.047485</ele>
        <time>2020-08-22T09:06:46Z</time>
      </trkpt>
      <trkpt lat="47.09282" lon="6.16884">
        <ele>339.130005</ele>
        <time>2020-08-22T09:07:03Z</time>
      </trkpt>
      <trkpt lat="47.0927" lon="6.16911">
        <ele>339.375</ele>
        <time>2020-08-22T09:07:08Z</time>
      </trkpt>
      <trkpt lat="47.09258" lon="6.16958">
        <ele>340.276428</ele>
        <time>2020-08-22T09:07:16Z</time>
      </trkpt>
      <trkpt lat="47.09211" lon="6.17079">
        <ele>341.514984</ele>
        <time>2020-08-22T09:07:38Z</time>
      </trkpt>
      <trkpt lat="47.0919" lon="6.17188">
        <ele>337.524323</ele>
        <time>2020-08-22T09:07:56Z</time>
      </trkpt>
      <trkpt lat="47.09185" lon="6.17203">
        <ele>337.428192</ele>
        <time>2020-08-22T09:07:59Z</time>
      </trkpt>
      <trkpt lat="47.09158" lon="6.17256">
        <ele>338.130066</ele>
        <time>2020-08-22T09:08:09Z</time>
      </trkpt>
      <trkpt lat="47.09121" lon="6.17316">
        <ele>339.007751</ele>
        <time>2020-08-22T09:08:22Z</time>
      </trkpt>
      <trkpt lat="47.09097" lon="6.17348">
        <ele>339.441742</ele>
        <time>2020-08-22T09:08:29Z</time>
      </trkpt>
      <trkpt lat="47.0899" lon="6.17509">
        <ele>341.277863</ele>
        <time>2020-08-22T09:09:05Z</time>
      </trkpt>
      <trkpt lat="47.08921" lon="6.17641">
        <ele>341.790253</ele>
        <time>2020-08-22T09:09:32Z</time>
      </trkpt>
      <trkpt lat="47.089" lon="6.17686">
        <ele>341.350006</ele>
        <time>2020-08-22T09:09:40Z</time>
      </trkpt>
      <trkpt lat="47.08885" lon="6.17724">
        <ele>341.795563</ele>
        <time>2020-08-22T09:09:47Z</time>
      </trkpt>
      <trkpt lat="47.08863" lon="6.17793">
        <ele>340.626984</ele>
        <time>2020-08-22T09:09:59Z</time>
      </trkpt>
      <trkpt lat="47.08833" lon="6.17862">
        <ele>340.700775</ele>
        <time>2020-08-22T09:10:13Z</time>
      </trkpt>
      <trkpt lat="47.08818" lon="6.17891">
        <ele>340.668365</ele>
        <time>2020-08-22T09:10:18Z</time>
      </trkpt>
      <trkpt lat="47.08772" lon="6.17955">
        <ele>340.255371</ele>
        <time>2020-08-22T09:10:33Z</time>
      </trkpt>
      <trkpt lat="47.08686" lon="6.1805">
        <ele>338.951263</ele>
        <time>2020-08-22T09:10:58Z</time>
      </trkpt>
      <trkpt lat="47.08635" lon="6.18096">
        <ele>339.713745</ele>
        <time>2020-08-22T09:11:12Z</time>
      </trkpt>
      <trkpt lat="47.08528" lon="6.18163">
        <ele>339.743469</ele>
        <time>2020-08-22T09:11:39Z</time>
      </trkpt>
      <trkpt lat="47.08416" lon="6.18225">
        <ele>341.859497</ele>
        <time>2020-08-22T09:12:07Z</time>
      </trkpt>
      <trkpt lat="47.08328" lon="6.18268">
        <ele>345.338348</ele>
        <time>2020-08-22T09:12:29Z</time>
      </trkpt>
      <trkpt lat="47.08298" lon="6.18279">
        <ele>345.18924</ele>
        <time>2020-08-22T09:12:36Z</time>
      </trkpt>
      <trkpt lat="47.08273" lon="6.18295">
        <ele>344.398376</ele>
        <time>2020-08-22T09:12:43Z</time>
      </trkpt>
      <trkpt lat="47.08244" lon="6.18318">
        <ele>342.803497</ele>
        <time>2020-08-22T09:12:50Z</time>
      </trkpt>
      <trkpt lat="47.08204" lon="6.1836">
        <ele>341.359039</ele>
        <time>2020-08-22T09:13:02Z</time>
      </trkpt>
    </trkseg>
  </trk>
</gpx>